<?xml version="1.0" encoding="UTF-8" standalone="no" ?>
<gpx xmlns="http://www.topografix.com/GPX/1/1" xmlns:xsi="http://www.w3.org/2001/XMLSchema-instance" xsi:schemaLocation="http://www.topografix.com/GPX/1/1 http://www.topografix.com/GPX/1/1/gpx.xsd" version="1.1" creator="VisuGPX - https://www.visugpx.com">
  <metadata>
    <name>12-08-21-Chézine</name>
    <desc><![CDATA[Sillon de bretagne]]></desc>
  </metadata>
  <trk>
    <name><![CDATA[21/08/2012 12:34]]></name>
    <desc><![CDATA[Sillon de bretagne]]></desc>
    <trkseg>
      <trkpt lat="47.22822" lon="-1.59556">
        <ele>94.7</ele>
        <time>2012-08-21T10:55:56.000Z</time>
      </trkpt>
      <trkpt lat="47.22825" lon="-1.59551">
        <ele>94.7</ele>
        <time>2012-08-21T10:55:58.000Z</time>
      </trkpt>
      <trkpt lat="47.22831" lon="-1.5955">
        <ele>90</ele>
        <time>2012-08-21T10:56:01.000Z</time>
      </trkpt>
      <trkpt lat="47.22836" lon="-1.59555">
        <ele>93.2</ele>
        <time>2012-08-21T10:56:04.000Z</time>
      </trkpt>
      <trkpt lat="47.22841" lon="-1.5956">
        <ele>91.2</ele>
        <time>2012-08-21T10:56:06.000Z</time>
      </trkpt>
      <trkpt lat="47.22848" lon="-1.59564">
        <ele>81.1</ele>
        <time>2012-08-21T10:56:08.000Z</time>
      </trkpt>
      <trkpt lat="47.22849" lon="-1.59573">
        <ele>77.8</ele>
        <time>2012-08-21T10:56:11.000Z</time>
      </trkpt>
      <trkpt lat="47.22848" lon="-1.59581">
        <ele>74.1</ele>
        <time>2012-08-21T10:56:13.000Z</time>
      </trkpt>
      <trkpt lat="47.22844" lon="-1.59585">
        <ele>78.6</ele>
        <time>2012-08-21T10:56:15.000Z</time>
      </trkpt>
      <trkpt lat="47.22844" lon="-1.59592">
        <ele>80.1</ele>
        <time>2012-08-21T10:56:16.000Z</time>
      </trkpt>
      <trkpt lat="47.22843" lon="-1.59599">
        <ele>75.8</ele>
        <time>2012-08-21T10:56:18.000Z</time>
      </trkpt>
      <trkpt lat="47.22842" lon="-1.59608">
        <ele>70</ele>
        <time>2012-08-21T10:56:21.000Z</time>
      </trkpt>
      <trkpt lat="47.2284" lon="-1.59616">
        <ele>69.6</ele>
        <time>2012-08-21T10:56:23.000Z</time>
      </trkpt>
      <trkpt lat="47.22846" lon="-1.59627">
        <ele>67.5</ele>
        <time>2012-08-21T10:56:25.000Z</time>
      </trkpt>
      <trkpt lat="47.22847" lon="-1.59636">
        <ele>69.8</ele>
        <time>2012-08-21T10:56:27.000Z</time>
      </trkpt>
      <trkpt lat="47.22851" lon="-1.59641">
        <ele>70</ele>
        <time>2012-08-21T10:56:29.000Z</time>
      </trkpt>
      <trkpt lat="47.22856" lon="-1.59647">
        <ele>68.9</ele>
        <time>2012-08-21T10:56:31.000Z</time>
      </trkpt>
      <trkpt lat="47.22859" lon="-1.59654">
        <ele>69.8</ele>
        <time>2012-08-21T10:56:33.000Z</time>
      </trkpt>
      <trkpt lat="47.22862" lon="-1.59658">
        <ele>68.4</ele>
        <time>2012-08-21T10:56:35.000Z</time>
      </trkpt>
      <trkpt lat="47.22867" lon="-1.59661">
        <ele>68.3</ele>
        <time>2012-08-21T10:56:36.000Z</time>
      </trkpt>
      <trkpt lat="47.22872" lon="-1.59664">
        <ele>68.6</ele>
        <time>2012-08-21T10:56:37.000Z</time>
      </trkpt>
      <trkpt lat="47.22875" lon="-1.5967">
        <ele>68</ele>
        <time>2012-08-21T10:56:39.000Z</time>
      </trkpt>
      <trkpt lat="47.22878" lon="-1.59677">
        <ele>66.8</ele>
        <time>2012-08-21T10:56:41.000Z</time>
      </trkpt>
      <trkpt lat="47.22883" lon="-1.59682">
        <ele>66.8</ele>
        <time>2012-08-21T10:56:44.000Z</time>
      </trkpt>
      <trkpt lat="47.22888" lon="-1.59684">
        <ele>65.9</ele>
        <time>2012-08-21T10:56:46.000Z</time>
      </trkpt>
      <trkpt lat="47.22895" lon="-1.59689">
        <ele>66.3</ele>
        <time>2012-08-21T10:56:48.000Z</time>
      </trkpt>
      <trkpt lat="47.22898" lon="-1.59694">
        <ele>65.6</ele>
        <time>2012-08-21T10:56:49.000Z</time>
      </trkpt>
      <trkpt lat="47.22904" lon="-1.59699">
        <ele>66.4</ele>
        <time>2012-08-21T10:56:51.000Z</time>
      </trkpt>
      <trkpt lat="47.22911" lon="-1.59706">
        <ele>66.1</ele>
        <time>2012-08-21T10:56:53.000Z</time>
      </trkpt>
      <trkpt lat="47.22915" lon="-1.59709">
        <ele>66.3</ele>
        <time>2012-08-21T10:56:54.000Z</time>
      </trkpt>
      <trkpt lat="47.22922" lon="-1.59713">
        <ele>65.7</ele>
        <time>2012-08-21T10:56:57.000Z</time>
      </trkpt>
      <trkpt lat="47.22928" lon="-1.59716">
        <ele>66.1</ele>
        <time>2012-08-21T10:57:00.000Z</time>
      </trkpt>
      <trkpt lat="47.22926" lon="-1.59721">
        <ele>67.8</ele>
        <time>2012-08-21T10:57:03.000Z</time>
      </trkpt>
      <trkpt lat="47.22927" lon="-1.5973">
        <ele>67.4</ele>
        <time>2012-08-21T10:57:05.000Z</time>
      </trkpt>
      <trkpt lat="47.2293" lon="-1.59739">
        <ele>67.3</ele>
        <time>2012-08-21T10:57:07.000Z</time>
      </trkpt>
      <trkpt lat="47.2293" lon="-1.59747">
        <ele>67</ele>
        <time>2012-08-21T10:57:09.000Z</time>
      </trkpt>
      <trkpt lat="47.22931" lon="-1.59756">
        <ele>68</ele>
        <time>2012-08-21T10:57:11.000Z</time>
      </trkpt>
      <trkpt lat="47.22935" lon="-1.59762">
        <ele>68.9</ele>
        <time>2012-08-21T10:57:13.000Z</time>
      </trkpt>
      <trkpt lat="47.2294" lon="-1.59757">
        <ele>68.1</ele>
        <time>2012-08-21T10:57:16.000Z</time>
      </trkpt>
      <trkpt lat="47.22942" lon="-1.59749">
        <ele>67.3</ele>
        <time>2012-08-21T10:57:18.000Z</time>
      </trkpt>
      <trkpt lat="47.22945" lon="-1.59742">
        <ele>67.6</ele>
        <time>2012-08-21T10:57:21.000Z</time>
      </trkpt>
      <trkpt lat="47.2295" lon="-1.59739">
        <ele>67.7</ele>
        <time>2012-08-21T10:57:23.000Z</time>
      </trkpt>
      <trkpt lat="47.22955" lon="-1.59734">
        <ele>67.9</ele>
        <time>2012-08-21T10:57:27.000Z</time>
      </trkpt>
      <trkpt lat="47.22959" lon="-1.59733">
        <ele>68</ele>
        <time>2012-08-21T10:57:30.000Z</time>
      </trkpt>
      <trkpt lat="47.22964" lon="-1.59728">
        <ele>68.5</ele>
        <time>2012-08-21T10:57:32.000Z</time>
      </trkpt>
      <trkpt lat="47.22971" lon="-1.59728">
        <ele>69.5</ele>
        <time>2012-08-21T10:57:34.000Z</time>
      </trkpt>
      <trkpt lat="47.22977" lon="-1.59728">
        <ele>70.5</ele>
        <time>2012-08-21T10:57:37.000Z</time>
      </trkpt>
      <trkpt lat="47.22983" lon="-1.59728">
        <ele>70.5</ele>
        <time>2012-08-21T10:57:39.000Z</time>
      </trkpt>
      <trkpt lat="47.22987" lon="-1.5972">
        <ele>71.3</ele>
        <time>2012-08-21T10:57:42.000Z</time>
      </trkpt>
      <trkpt lat="47.2299" lon="-1.59715">
        <ele>71.6</ele>
        <time>2012-08-21T10:57:44.000Z</time>
      </trkpt>
      <trkpt lat="47.22994" lon="-1.59714">
        <ele>73</ele>
        <time>2012-08-21T10:57:46.000Z</time>
      </trkpt>
      <trkpt lat="47.23001" lon="-1.59715">
        <ele>74.1</ele>
        <time>2012-08-21T10:57:49.000Z</time>
      </trkpt>
      <trkpt lat="47.23006" lon="-1.59715">
        <ele>74</ele>
        <time>2012-08-21T10:57:52.000Z</time>
      </trkpt>
      <trkpt lat="47.23014" lon="-1.59715">
        <ele>75</ele>
        <time>2012-08-21T10:57:55.000Z</time>
      </trkpt>
      <trkpt lat="47.23019" lon="-1.59713">
        <ele>74.2</ele>
        <time>2012-08-21T10:57:58.000Z</time>
      </trkpt>
      <trkpt lat="47.23025" lon="-1.59712">
        <ele>74.3</ele>
        <time>2012-08-21T10:58:00.000Z</time>
      </trkpt>
      <trkpt lat="47.23035" lon="-1.59712">
        <ele>73</ele>
        <time>2012-08-21T10:58:02.000Z</time>
      </trkpt>
      <trkpt lat="47.23039" lon="-1.59706">
        <ele>72.7</ele>
        <time>2012-08-21T10:58:05.000Z</time>
      </trkpt>
      <trkpt lat="47.23043" lon="-1.59701">
        <ele>72.9</ele>
        <time>2012-08-21T10:58:07.000Z</time>
      </trkpt>
      <trkpt lat="47.23051" lon="-1.59696">
        <ele>72.7</ele>
        <time>2012-08-21T10:58:09.000Z</time>
      </trkpt>
      <trkpt lat="47.23055" lon="-1.59686">
        <ele>71.7</ele>
        <time>2012-08-21T10:58:11.000Z</time>
      </trkpt>
      <trkpt lat="47.23059" lon="-1.5968">
        <ele>71.8</ele>
        <time>2012-08-21T10:58:13.000Z</time>
      </trkpt>
      <trkpt lat="47.23064" lon="-1.59672">
        <ele>71.4</ele>
        <time>2012-08-21T10:58:15.000Z</time>
      </trkpt>
      <trkpt lat="47.2307" lon="-1.59667">
        <ele>71.2</ele>
        <time>2012-08-21T10:58:17.000Z</time>
      </trkpt>
      <trkpt lat="47.23077" lon="-1.59661">
        <ele>71.3</ele>
        <time>2012-08-21T10:58:19.000Z</time>
      </trkpt>
      <trkpt lat="47.23084" lon="-1.59659">
        <ele>71.5</ele>
        <time>2012-08-21T10:58:21.000Z</time>
      </trkpt>
      <trkpt lat="47.2309" lon="-1.59658">
        <ele>71.1</ele>
        <time>2012-08-21T10:58:23.000Z</time>
      </trkpt>
      <trkpt lat="47.23099" lon="-1.5966">
        <ele>69.9</ele>
        <time>2012-08-21T10:58:26.000Z</time>
      </trkpt>
      <trkpt lat="47.23106" lon="-1.59663">
        <ele>68.5</ele>
        <time>2012-08-21T10:58:28.000Z</time>
      </trkpt>
      <trkpt lat="47.2311" lon="-1.59666">
        <ele>68.1</ele>
        <time>2012-08-21T10:58:29.000Z</time>
      </trkpt>
      <trkpt lat="47.23115" lon="-1.59666">
        <ele>67.2</ele>
        <time>2012-08-21T10:58:32.000Z</time>
      </trkpt>
      <trkpt lat="47.23121" lon="-1.59674">
        <ele>67.5</ele>
        <time>2012-08-21T10:58:34.000Z</time>
      </trkpt>
      <trkpt lat="47.23127" lon="-1.59678">
        <ele>66.3</ele>
        <time>2012-08-21T10:58:36.000Z</time>
      </trkpt>
      <trkpt lat="47.23132" lon="-1.59682">
        <ele>67</ele>
        <time>2012-08-21T10:58:37.000Z</time>
      </trkpt>
      <trkpt lat="47.23137" lon="-1.59688">
        <ele>68.1</ele>
        <time>2012-08-21T10:58:39.000Z</time>
      </trkpt>
      <trkpt lat="47.23139" lon="-1.59694">
        <ele>68.3</ele>
        <time>2012-08-21T10:58:41.000Z</time>
      </trkpt>
      <trkpt lat="47.23143" lon="-1.59704">
        <ele>68.4</ele>
        <time>2012-08-21T10:58:43.000Z</time>
      </trkpt>
      <trkpt lat="47.23146" lon="-1.5971">
        <ele>68.2</ele>
        <time>2012-08-21T10:58:45.000Z</time>
      </trkpt>
      <trkpt lat="47.23151" lon="-1.59718">
        <ele>68</ele>
        <time>2012-08-21T10:58:48.000Z</time>
      </trkpt>
      <trkpt lat="47.23158" lon="-1.59726">
        <ele>68.8</ele>
        <time>2012-08-21T10:58:50.000Z</time>
      </trkpt>
      <trkpt lat="47.23162" lon="-1.59732">
        <ele>70.8</ele>
        <time>2012-08-21T10:58:52.000Z</time>
      </trkpt>
      <trkpt lat="47.23166" lon="-1.59738">
        <ele>70.6</ele>
        <time>2012-08-21T10:58:53.000Z</time>
      </trkpt>
      <trkpt lat="47.2317" lon="-1.59743">
        <ele>68.9</ele>
        <time>2012-08-21T10:58:55.000Z</time>
      </trkpt>
      <trkpt lat="47.23174" lon="-1.59749">
        <ele>69.1</ele>
        <time>2012-08-21T10:58:57.000Z</time>
      </trkpt>
      <trkpt lat="47.23179" lon="-1.5976">
        <ele>70.4</ele>
        <time>2012-08-21T10:59:02.000Z</time>
      </trkpt>
      <trkpt lat="47.23184" lon="-1.59769">
        <ele>69.5</ele>
        <time>2012-08-21T10:59:04.000Z</time>
      </trkpt>
      <trkpt lat="47.23187" lon="-1.59778">
        <ele>67.1</ele>
        <time>2012-08-21T10:59:06.000Z</time>
      </trkpt>
      <trkpt lat="47.2319" lon="-1.5979">
        <ele>66.4</ele>
        <time>2012-08-21T10:59:08.000Z</time>
      </trkpt>
      <trkpt lat="47.23188" lon="-1.59796">
        <ele>68.1</ele>
        <time>2012-08-21T10:59:10.000Z</time>
      </trkpt>
      <trkpt lat="47.23186" lon="-1.59804">
        <ele>68</ele>
        <time>2012-08-21T10:59:12.000Z</time>
      </trkpt>
      <trkpt lat="47.23187" lon="-1.59811">
        <ele>68</ele>
        <time>2012-08-21T10:59:14.000Z</time>
      </trkpt>
      <trkpt lat="47.23191" lon="-1.59818">
        <ele>67.7</ele>
        <time>2012-08-21T10:59:17.000Z</time>
      </trkpt>
      <trkpt lat="47.23195" lon="-1.59825">
        <ele>68.1</ele>
        <time>2012-08-21T10:59:19.000Z</time>
      </trkpt>
      <trkpt lat="47.23199" lon="-1.59832">
        <ele>67.4</ele>
        <time>2012-08-21T10:59:21.000Z</time>
      </trkpt>
      <trkpt lat="47.23204" lon="-1.5984">
        <ele>67.4</ele>
        <time>2012-08-21T10:59:23.000Z</time>
      </trkpt>
      <trkpt lat="47.23208" lon="-1.59846">
        <ele>66.9</ele>
        <time>2012-08-21T10:59:25.000Z</time>
      </trkpt>
      <trkpt lat="47.23213" lon="-1.59856">
        <ele>67.7</ele>
        <time>2012-08-21T10:59:27.000Z</time>
      </trkpt>
      <trkpt lat="47.23216" lon="-1.59863">
        <ele>67.8</ele>
        <time>2012-08-21T10:59:29.000Z</time>
      </trkpt>
      <trkpt lat="47.2322" lon="-1.59868">
        <ele>67.4</ele>
        <time>2012-08-21T10:59:30.000Z</time>
      </trkpt>
      <trkpt lat="47.23224" lon="-1.59875">
        <ele>67.7</ele>
        <time>2012-08-21T10:59:32.000Z</time>
      </trkpt>
      <trkpt lat="47.2323" lon="-1.59883">
        <ele>67.9</ele>
        <time>2012-08-21T10:59:34.000Z</time>
      </trkpt>
      <trkpt lat="47.23233" lon="-1.59888">
        <ele>68.7</ele>
        <time>2012-08-21T10:59:36.000Z</time>
      </trkpt>
      <trkpt lat="47.23242" lon="-1.59898">
        <ele>68.8</ele>
        <time>2012-08-21T10:59:38.000Z</time>
      </trkpt>
      <trkpt lat="47.23246" lon="-1.59902">
        <ele>68.7</ele>
        <time>2012-08-21T10:59:41.000Z</time>
      </trkpt>
      <trkpt lat="47.23251" lon="-1.59905">
        <ele>67.9</ele>
        <time>2012-08-21T10:59:43.000Z</time>
      </trkpt>
      <trkpt lat="47.23258" lon="-1.59912">
        <ele>67.2</ele>
        <time>2012-08-21T10:59:45.000Z</time>
      </trkpt>
      <trkpt lat="47.23263" lon="-1.59917">
        <ele>66.5</ele>
        <time>2012-08-21T10:59:47.000Z</time>
      </trkpt>
      <trkpt lat="47.23269" lon="-1.5992">
        <ele>66.7</ele>
        <time>2012-08-21T10:59:49.000Z</time>
      </trkpt>
      <trkpt lat="47.23275" lon="-1.59926">
        <ele>66.4</ele>
        <time>2012-08-21T10:59:51.000Z</time>
      </trkpt>
      <trkpt lat="47.23279" lon="-1.5993">
        <ele>66.6</ele>
        <time>2012-08-21T10:59:53.000Z</time>
      </trkpt>
      <trkpt lat="47.23283" lon="-1.59932">
        <ele>64.8</ele>
        <time>2012-08-21T10:59:55.000Z</time>
      </trkpt>
      <trkpt lat="47.23288" lon="-1.59937">
        <ele>64.7</ele>
        <time>2012-08-21T10:59:57.000Z</time>
      </trkpt>
      <trkpt lat="47.23294" lon="-1.59942">
        <ele>65.3</ele>
        <time>2012-08-21T11:00:00.000Z</time>
      </trkpt>
      <trkpt lat="47.23296" lon="-1.59948">
        <ele>65.3</ele>
        <time>2012-08-21T11:00:02.000Z</time>
      </trkpt>
      <trkpt lat="47.23299" lon="-1.59955">
        <ele>65.5</ele>
        <time>2012-08-21T11:00:04.000Z</time>
      </trkpt>
      <trkpt lat="47.23303" lon="-1.5996">
        <ele>63.9</ele>
        <time>2012-08-21T11:00:06.000Z</time>
      </trkpt>
      <trkpt lat="47.23298" lon="-1.59968">
        <ele>64.6</ele>
        <time>2012-08-21T11:00:08.000Z</time>
      </trkpt>
      <trkpt lat="47.233" lon="-1.59973">
        <ele>63.8</ele>
        <time>2012-08-21T11:00:09.000Z</time>
      </trkpt>
      <trkpt lat="47.23304" lon="-1.59979">
        <ele>63.3</ele>
        <time>2012-08-21T11:00:10.000Z</time>
      </trkpt>
      <trkpt lat="47.23306" lon="-1.59987">
        <ele>62.7</ele>
        <time>2012-08-21T11:00:11.000Z</time>
      </trkpt>
      <trkpt lat="47.23309" lon="-1.59996">
        <ele>61.4</ele>
        <time>2012-08-21T11:00:13.000Z</time>
      </trkpt>
      <trkpt lat="47.23308" lon="-1.60005">
        <ele>61</ele>
        <time>2012-08-21T11:00:16.000Z</time>
      </trkpt>
      <trkpt lat="47.23309" lon="-1.60013">
        <ele>62.2</ele>
        <time>2012-08-21T11:00:18.000Z</time>
      </trkpt>
      <trkpt lat="47.2331" lon="-1.60021">
        <ele>61.7</ele>
        <time>2012-08-21T11:00:20.000Z</time>
      </trkpt>
      <trkpt lat="47.2331" lon="-1.60027">
        <ele>61.7</ele>
        <time>2012-08-21T11:00:22.000Z</time>
      </trkpt>
      <trkpt lat="47.23311" lon="-1.60034">
        <ele>61.6</ele>
        <time>2012-08-21T11:00:23.000Z</time>
      </trkpt>
      <trkpt lat="47.23312" lon="-1.60042">
        <ele>61.2</ele>
        <time>2012-08-21T11:00:25.000Z</time>
      </trkpt>
      <trkpt lat="47.23311" lon="-1.60051">
        <ele>61</ele>
        <time>2012-08-21T11:00:27.000Z</time>
      </trkpt>
      <trkpt lat="47.23312" lon="-1.60062">
        <ele>60.4</ele>
        <time>2012-08-21T11:00:29.000Z</time>
      </trkpt>
      <trkpt lat="47.23313" lon="-1.60073">
        <ele>59.8</ele>
        <time>2012-08-21T11:00:31.000Z</time>
      </trkpt>
      <trkpt lat="47.23314" lon="-1.60084">
        <ele>59.6</ele>
        <time>2012-08-21T11:00:33.000Z</time>
      </trkpt>
      <trkpt lat="47.23312" lon="-1.60089">
        <ele>59.2</ele>
        <time>2012-08-21T11:00:35.000Z</time>
      </trkpt>
      <trkpt lat="47.23311" lon="-1.60097">
        <ele>60.3</ele>
        <time>2012-08-21T11:00:37.000Z</time>
      </trkpt>
      <trkpt lat="47.23312" lon="-1.60108">
        <ele>60.9</ele>
        <time>2012-08-21T11:00:39.000Z</time>
      </trkpt>
      <trkpt lat="47.23313" lon="-1.60118">
        <ele>60.6</ele>
        <time>2012-08-21T11:00:41.000Z</time>
      </trkpt>
      <trkpt lat="47.23315" lon="-1.60125">
        <ele>60.2</ele>
        <time>2012-08-21T11:00:43.000Z</time>
      </trkpt>
      <trkpt lat="47.23317" lon="-1.6013">
        <ele>60.4</ele>
        <time>2012-08-21T11:00:44.000Z</time>
      </trkpt>
      <trkpt lat="47.23321" lon="-1.60138">
        <ele>60.6</ele>
        <time>2012-08-21T11:00:46.000Z</time>
      </trkpt>
      <trkpt lat="47.23326" lon="-1.60145">
        <ele>61.2</ele>
        <time>2012-08-21T11:00:48.000Z</time>
      </trkpt>
      <trkpt lat="47.23333" lon="-1.6015">
        <ele>61.3</ele>
        <time>2012-08-21T11:00:51.000Z</time>
      </trkpt>
      <trkpt lat="47.23337" lon="-1.60156">
        <ele>61.5</ele>
        <time>2012-08-21T11:00:53.000Z</time>
      </trkpt>
      <trkpt lat="47.23342" lon="-1.60163">
        <ele>60.9</ele>
        <time>2012-08-21T11:00:55.000Z</time>
      </trkpt>
      <trkpt lat="47.23345" lon="-1.60167">
        <ele>61.2</ele>
        <time>2012-08-21T11:00:56.000Z</time>
      </trkpt>
      <trkpt lat="47.23349" lon="-1.60175">
        <ele>62</ele>
        <time>2012-08-21T11:00:59.000Z</time>
      </trkpt>
      <trkpt lat="47.23352" lon="-1.60181">
        <ele>62.5</ele>
        <time>2012-08-21T11:01:00.000Z</time>
      </trkpt>
      <trkpt lat="47.23355" lon="-1.6019">
        <ele>62.8</ele>
        <time>2012-08-21T11:01:02.000Z</time>
      </trkpt>
      <trkpt lat="47.23359" lon="-1.60198">
        <ele>62.4</ele>
        <time>2012-08-21T11:01:04.000Z</time>
      </trkpt>
      <trkpt lat="47.23361" lon="-1.60205">
        <ele>63.7</ele>
        <time>2012-08-21T11:01:06.000Z</time>
      </trkpt>
      <trkpt lat="47.23366" lon="-1.60212">
        <ele>63.4</ele>
        <time>2012-08-21T11:01:08.000Z</time>
      </trkpt>
      <trkpt lat="47.23372" lon="-1.6022">
        <ele>63.3</ele>
        <time>2012-08-21T11:01:10.000Z</time>
      </trkpt>
      <trkpt lat="47.23377" lon="-1.60225">
        <ele>64.3</ele>
        <time>2012-08-21T11:01:13.000Z</time>
      </trkpt>
      <trkpt lat="47.23382" lon="-1.60227">
        <ele>64.2</ele>
        <time>2012-08-21T11:01:15.000Z</time>
      </trkpt>
      <trkpt lat="47.23386" lon="-1.6023">
        <ele>63.9</ele>
        <time>2012-08-21T11:01:16.000Z</time>
      </trkpt>
      <trkpt lat="47.23389" lon="-1.60236">
        <ele>64.4</ele>
        <time>2012-08-21T11:01:18.000Z</time>
      </trkpt>
      <trkpt lat="47.23395" lon="-1.60242">
        <ele>65.2</ele>
        <time>2012-08-21T11:01:21.000Z</time>
      </trkpt>
      <trkpt lat="47.23399" lon="-1.6025">
        <ele>65.5</ele>
        <time>2012-08-21T11:01:23.000Z</time>
      </trkpt>
      <trkpt lat="47.23403" lon="-1.60256">
        <ele>64.9</ele>
        <time>2012-08-21T11:01:25.000Z</time>
      </trkpt>
      <trkpt lat="47.23407" lon="-1.60261">
        <ele>65</ele>
        <time>2012-08-21T11:01:27.000Z</time>
      </trkpt>
      <trkpt lat="47.23411" lon="-1.60267">
        <ele>65.3</ele>
        <time>2012-08-21T11:01:30.000Z</time>
      </trkpt>
      <trkpt lat="47.23415" lon="-1.60271">
        <ele>65.5</ele>
        <time>2012-08-21T11:01:31.000Z</time>
      </trkpt>
      <trkpt lat="47.23418" lon="-1.60277">
        <ele>65.7</ele>
        <time>2012-08-21T11:01:33.000Z</time>
      </trkpt>
      <trkpt lat="47.23422" lon="-1.60282">
        <ele>65.1</ele>
        <time>2012-08-21T11:01:34.000Z</time>
      </trkpt>
      <trkpt lat="47.23426" lon="-1.60285">
        <ele>65.1</ele>
        <time>2012-08-21T11:01:35.000Z</time>
      </trkpt>
      <trkpt lat="47.2343" lon="-1.60293">
        <ele>65.8</ele>
        <time>2012-08-21T11:01:36.000Z</time>
      </trkpt>
      <trkpt lat="47.23435" lon="-1.603">
        <ele>66.2</ele>
        <time>2012-08-21T11:01:38.000Z</time>
      </trkpt>
      <trkpt lat="47.23439" lon="-1.60304">
        <ele>66.1</ele>
        <time>2012-08-21T11:01:40.000Z</time>
      </trkpt>
      <trkpt lat="47.23449" lon="-1.60314">
        <ele>65.5</ele>
        <time>2012-08-21T11:01:44.000Z</time>
      </trkpt>
      <trkpt lat="47.23453" lon="-1.60321">
        <ele>63.6</ele>
        <time>2012-08-21T11:01:46.000Z</time>
      </trkpt>
      <trkpt lat="47.23461" lon="-1.60334">
        <ele>64.8</ele>
        <time>2012-08-21T11:01:48.000Z</time>
      </trkpt>
      <trkpt lat="47.23465" lon="-1.60338">
        <ele>64.3</ele>
        <time>2012-08-21T11:01:50.000Z</time>
      </trkpt>
      <trkpt lat="47.23471" lon="-1.60342">
        <ele>65.3</ele>
        <time>2012-08-21T11:01:52.000Z</time>
      </trkpt>
      <trkpt lat="47.23476" lon="-1.60346">
        <ele>66.8</ele>
        <time>2012-08-21T11:01:54.000Z</time>
      </trkpt>
      <trkpt lat="47.2348" lon="-1.6035">
        <ele>67.8</ele>
        <time>2012-08-21T11:01:56.000Z</time>
      </trkpt>
      <trkpt lat="47.23484" lon="-1.60356">
        <ele>67.3</ele>
        <time>2012-08-21T11:01:58.000Z</time>
      </trkpt>
      <trkpt lat="47.23487" lon="-1.60363">
        <ele>68</ele>
        <time>2012-08-21T11:02:00.000Z</time>
      </trkpt>
      <trkpt lat="47.23491" lon="-1.60371">
        <ele>68.2</ele>
        <time>2012-08-21T11:02:02.000Z</time>
      </trkpt>
      <trkpt lat="47.23495" lon="-1.60379">
        <ele>67.8</ele>
        <time>2012-08-21T11:02:04.000Z</time>
      </trkpt>
      <trkpt lat="47.23499" lon="-1.60386">
        <ele>68.3</ele>
        <time>2012-08-21T11:02:06.000Z</time>
      </trkpt>
      <trkpt lat="47.23498" lon="-1.60394">
        <ele>68.9</ele>
        <time>2012-08-21T11:02:08.000Z</time>
      </trkpt>
      <trkpt lat="47.235" lon="-1.60403">
        <ele>69.8</ele>
        <time>2012-08-21T11:02:10.000Z</time>
      </trkpt>
      <trkpt lat="47.23502" lon="-1.6041">
        <ele>69.4</ele>
        <time>2012-08-21T11:02:12.000Z</time>
      </trkpt>
      <trkpt lat="47.23502" lon="-1.60418">
        <ele>69.4</ele>
        <time>2012-08-21T11:02:13.000Z</time>
      </trkpt>
      <trkpt lat="47.23505" lon="-1.60426">
        <ele>69.1</ele>
        <time>2012-08-21T11:02:15.000Z</time>
      </trkpt>
      <trkpt lat="47.23506" lon="-1.60434">
        <ele>68.4</ele>
        <time>2012-08-21T11:02:17.000Z</time>
      </trkpt>
      <trkpt lat="47.23507" lon="-1.60441">
        <ele>68.5</ele>
        <time>2012-08-21T11:02:18.000Z</time>
      </trkpt>
      <trkpt lat="47.2351" lon="-1.6045">
        <ele>68</ele>
        <time>2012-08-21T11:02:20.000Z</time>
      </trkpt>
      <trkpt lat="47.23509" lon="-1.60456">
        <ele>67.9</ele>
        <time>2012-08-21T11:02:22.000Z</time>
      </trkpt>
      <trkpt lat="47.23509" lon="-1.60464">
        <ele>67.6</ele>
        <time>2012-08-21T11:02:24.000Z</time>
      </trkpt>
      <trkpt lat="47.23509" lon="-1.60476">
        <ele>68.6</ele>
        <time>2012-08-21T11:02:26.000Z</time>
      </trkpt>
      <trkpt lat="47.23509" lon="-1.60487">
        <ele>67.9</ele>
        <time>2012-08-21T11:02:28.000Z</time>
      </trkpt>
      <trkpt lat="47.23509" lon="-1.60497">
        <ele>66.6</ele>
        <time>2012-08-21T11:02:30.000Z</time>
      </trkpt>
      <trkpt lat="47.23508" lon="-1.60504">
        <ele>66.8</ele>
        <time>2012-08-21T11:02:32.000Z</time>
      </trkpt>
      <trkpt lat="47.23512" lon="-1.60511">
        <ele>67.2</ele>
        <time>2012-08-21T11:02:33.000Z</time>
      </trkpt>
      <trkpt lat="47.23514" lon="-1.60523">
        <ele>67.5</ele>
        <time>2012-08-21T11:02:35.000Z</time>
      </trkpt>
      <trkpt lat="47.23513" lon="-1.60532">
        <ele>67.2</ele>
        <time>2012-08-21T11:02:37.000Z</time>
      </trkpt>
      <trkpt lat="47.23513" lon="-1.6054">
        <ele>66.7</ele>
        <time>2012-08-21T11:02:39.000Z</time>
      </trkpt>
      <trkpt lat="47.23512" lon="-1.60549">
        <ele>67.5</ele>
        <time>2012-08-21T11:02:41.000Z</time>
      </trkpt>
      <trkpt lat="47.23512" lon="-1.60557">
        <ele>67.5</ele>
        <time>2012-08-21T11:02:43.000Z</time>
      </trkpt>
      <trkpt lat="47.23513" lon="-1.60566">
        <ele>67.6</ele>
        <time>2012-08-21T11:02:45.000Z</time>
      </trkpt>
      <trkpt lat="47.23514" lon="-1.60575">
        <ele>67.3</ele>
        <time>2012-08-21T11:02:47.000Z</time>
      </trkpt>
      <trkpt lat="47.23514" lon="-1.60583">
        <ele>66.9</ele>
        <time>2012-08-21T11:02:49.000Z</time>
      </trkpt>
      <trkpt lat="47.23512" lon="-1.60591">
        <ele>66.2</ele>
        <time>2012-08-21T11:02:52.000Z</time>
      </trkpt>
      <trkpt lat="47.23515" lon="-1.606">
        <ele>66.9</ele>
        <time>2012-08-21T11:02:55.000Z</time>
      </trkpt>
      <trkpt lat="47.23516" lon="-1.60612">
        <ele>66.3</ele>
        <time>2012-08-21T11:02:57.000Z</time>
      </trkpt>
      <trkpt lat="47.23518" lon="-1.6062">
        <ele>66.7</ele>
        <time>2012-08-21T11:02:58.000Z</time>
      </trkpt>
      <trkpt lat="47.2352" lon="-1.6063">
        <ele>67.3</ele>
        <time>2012-08-21T11:03:00.000Z</time>
      </trkpt>
      <trkpt lat="47.23519" lon="-1.60639">
        <ele>67.2</ele>
        <time>2012-08-21T11:03:03.000Z</time>
      </trkpt>
      <trkpt lat="47.23519" lon="-1.60646">
        <ele>67.3</ele>
        <time>2012-08-21T11:03:05.000Z</time>
      </trkpt>
      <trkpt lat="47.23518" lon="-1.60653">
        <ele>68.1</ele>
        <time>2012-08-21T11:03:07.000Z</time>
      </trkpt>
      <trkpt lat="47.2352" lon="-1.60663">
        <ele>67.7</ele>
        <time>2012-08-21T11:03:09.000Z</time>
      </trkpt>
      <trkpt lat="47.23522" lon="-1.60672">
        <ele>68.2</ele>
        <time>2012-08-21T11:03:11.000Z</time>
      </trkpt>
      <trkpt lat="47.23524" lon="-1.6068">
        <ele>68.3</ele>
        <time>2012-08-21T11:03:14.000Z</time>
      </trkpt>
      <trkpt lat="47.23528" lon="-1.60686">
        <ele>68.4</ele>
        <time>2012-08-21T11:03:15.000Z</time>
      </trkpt>
      <trkpt lat="47.23532" lon="-1.60692">
        <ele>67.5</ele>
        <time>2012-08-21T11:03:17.000Z</time>
      </trkpt>
      <trkpt lat="47.23534" lon="-1.60699">
        <ele>66.9</ele>
        <time>2012-08-21T11:03:19.000Z</time>
      </trkpt>
      <trkpt lat="47.23538" lon="-1.60708">
        <ele>68.9</ele>
        <time>2012-08-21T11:03:22.000Z</time>
      </trkpt>
      <trkpt lat="47.2354" lon="-1.60716">
        <ele>69.9</ele>
        <time>2012-08-21T11:03:24.000Z</time>
      </trkpt>
      <trkpt lat="47.23543" lon="-1.60722">
        <ele>70.8</ele>
        <time>2012-08-21T11:03:26.000Z</time>
      </trkpt>
      <trkpt lat="47.23547" lon="-1.60733">
        <ele>72.2</ele>
        <time>2012-08-21T11:03:28.000Z</time>
      </trkpt>
      <trkpt lat="47.23552" lon="-1.6074">
        <ele>72.6</ele>
        <time>2012-08-21T11:03:30.000Z</time>
      </trkpt>
      <trkpt lat="47.23554" lon="-1.60748">
        <ele>71.6</ele>
        <time>2012-08-21T11:03:32.000Z</time>
      </trkpt>
      <trkpt lat="47.23557" lon="-1.60757">
        <ele>71.6</ele>
        <time>2012-08-21T11:03:35.000Z</time>
      </trkpt>
      <trkpt lat="47.23559" lon="-1.60763">
        <ele>71.9</ele>
        <time>2012-08-21T11:03:36.000Z</time>
      </trkpt>
      <trkpt lat="47.23561" lon="-1.6077">
        <ele>71.2</ele>
        <time>2012-08-21T11:03:38.000Z</time>
      </trkpt>
      <trkpt lat="47.2357" lon="-1.6078">
        <ele>71.2</ele>
        <time>2012-08-21T11:03:41.000Z</time>
      </trkpt>
      <trkpt lat="47.23574" lon="-1.60786">
        <ele>72.1</ele>
        <time>2012-08-21T11:03:43.000Z</time>
      </trkpt>
      <trkpt lat="47.23578" lon="-1.60793">
        <ele>73</ele>
        <time>2012-08-21T11:03:45.000Z</time>
      </trkpt>
      <trkpt lat="47.23583" lon="-1.60799">
        <ele>73</ele>
        <time>2012-08-21T11:03:47.000Z</time>
      </trkpt>
      <trkpt lat="47.2359" lon="-1.60802">
        <ele>73.4</ele>
        <time>2012-08-21T11:03:50.000Z</time>
      </trkpt>
      <trkpt lat="47.23595" lon="-1.60806">
        <ele>73.4</ele>
        <time>2012-08-21T11:03:52.000Z</time>
      </trkpt>
      <trkpt lat="47.23602" lon="-1.6081">
        <ele>74.1</ele>
        <time>2012-08-21T11:03:54.000Z</time>
      </trkpt>
      <trkpt lat="47.23607" lon="-1.60813">
        <ele>75.1</ele>
        <time>2012-08-21T11:03:57.000Z</time>
      </trkpt>
      <trkpt lat="47.23611" lon="-1.60818">
        <ele>74.8</ele>
        <time>2012-08-21T11:03:59.000Z</time>
      </trkpt>
      <trkpt lat="47.23615" lon="-1.60825">
        <ele>74.7</ele>
        <time>2012-08-21T11:04:01.000Z</time>
      </trkpt>
      <trkpt lat="47.23617" lon="-1.60833">
        <ele>75</ele>
        <time>2012-08-21T11:04:03.000Z</time>
      </trkpt>
      <trkpt lat="47.2362" lon="-1.60839">
        <ele>74.5</ele>
        <time>2012-08-21T11:04:05.000Z</time>
      </trkpt>
      <trkpt lat="47.23618" lon="-1.60846">
        <ele>74.5</ele>
        <time>2012-08-21T11:04:07.000Z</time>
      </trkpt>
      <trkpt lat="47.2362" lon="-1.60855">
        <ele>74.4</ele>
        <time>2012-08-21T11:04:09.000Z</time>
      </trkpt>
      <trkpt lat="47.23621" lon="-1.60862">
        <ele>74.3</ele>
        <time>2012-08-21T11:04:11.000Z</time>
      </trkpt>
      <trkpt lat="47.23623" lon="-1.60868">
        <ele>73.9</ele>
        <time>2012-08-21T11:04:13.000Z</time>
      </trkpt>
      <trkpt lat="47.23624" lon="-1.60875">
        <ele>73.3</ele>
        <time>2012-08-21T11:04:14.000Z</time>
      </trkpt>
      <trkpt lat="47.23624" lon="-1.60883">
        <ele>72.3</ele>
        <time>2012-08-21T11:04:16.000Z</time>
      </trkpt>
      <trkpt lat="47.23624" lon="-1.6089">
        <ele>72.6</ele>
        <time>2012-08-21T11:04:17.000Z</time>
      </trkpt>
      <trkpt lat="47.23626" lon="-1.6091">
        <ele>71.3</ele>
        <time>2012-08-21T11:04:19.000Z</time>
      </trkpt>
      <trkpt lat="47.23623" lon="-1.60919">
        <ele>71.7</ele>
        <time>2012-08-21T11:04:21.000Z</time>
      </trkpt>
      <trkpt lat="47.23624" lon="-1.60929">
        <ele>71.2</ele>
        <time>2012-08-21T11:04:23.000Z</time>
      </trkpt>
      <trkpt lat="47.23625" lon="-1.60936">
        <ele>71.3</ele>
        <time>2012-08-21T11:04:24.000Z</time>
      </trkpt>
      <trkpt lat="47.23623" lon="-1.60943">
        <ele>70.7</ele>
        <time>2012-08-21T11:04:26.000Z</time>
      </trkpt>
      <trkpt lat="47.23622" lon="-1.60956">
        <ele>70.3</ele>
        <time>2012-08-21T11:04:28.000Z</time>
      </trkpt>
      <trkpt lat="47.23621" lon="-1.60963">
        <ele>70.2</ele>
        <time>2012-08-21T11:04:30.000Z</time>
      </trkpt>
      <trkpt lat="47.2362" lon="-1.6097">
        <ele>69.4</ele>
        <time>2012-08-21T11:04:32.000Z</time>
      </trkpt>
      <trkpt lat="47.23617" lon="-1.60976">
        <ele>69.2</ele>
        <time>2012-08-21T11:04:34.000Z</time>
      </trkpt>
      <trkpt lat="47.23616" lon="-1.60984">
        <ele>69.4</ele>
        <time>2012-08-21T11:04:36.000Z</time>
      </trkpt>
      <trkpt lat="47.23615" lon="-1.60997">
        <ele>69</ele>
        <time>2012-08-21T11:04:38.000Z</time>
      </trkpt>
      <trkpt lat="47.23612" lon="-1.61004">
        <ele>67.8</ele>
        <time>2012-08-21T11:04:40.000Z</time>
      </trkpt>
      <trkpt lat="47.23611" lon="-1.61012">
        <ele>67.4</ele>
        <time>2012-08-21T11:04:42.000Z</time>
      </trkpt>
      <trkpt lat="47.23612" lon="-1.61021">
        <ele>67.9</ele>
        <time>2012-08-21T11:04:44.000Z</time>
      </trkpt>
      <trkpt lat="47.23607" lon="-1.6103">
        <ele>68.6</ele>
        <time>2012-08-21T11:04:46.000Z</time>
      </trkpt>
      <trkpt lat="47.23605" lon="-1.61037">
        <ele>68.9</ele>
        <time>2012-08-21T11:04:48.000Z</time>
      </trkpt>
      <trkpt lat="47.2361" lon="-1.61049">
        <ele>68.6</ele>
        <time>2012-08-21T11:04:50.000Z</time>
      </trkpt>
      <trkpt lat="47.23612" lon="-1.61058">
        <ele>67.8</ele>
        <time>2012-08-21T11:04:52.000Z</time>
      </trkpt>
      <trkpt lat="47.23616" lon="-1.61069">
        <ele>67.1</ele>
        <time>2012-08-21T11:04:54.000Z</time>
      </trkpt>
      <trkpt lat="47.23616" lon="-1.61076">
        <ele>67.5</ele>
        <time>2012-08-21T11:04:56.000Z</time>
      </trkpt>
      <trkpt lat="47.23616" lon="-1.61084">
        <ele>66.9</ele>
        <time>2012-08-21T11:04:58.000Z</time>
      </trkpt>
      <trkpt lat="47.23615" lon="-1.61091">
        <ele>66.3</ele>
        <time>2012-08-21T11:05:00.000Z</time>
      </trkpt>
      <trkpt lat="47.23615" lon="-1.61102">
        <ele>66.4</ele>
        <time>2012-08-21T11:05:02.000Z</time>
      </trkpt>
      <trkpt lat="47.23617" lon="-1.61109">
        <ele>66.5</ele>
        <time>2012-08-21T11:05:04.000Z</time>
      </trkpt>
      <trkpt lat="47.23617" lon="-1.61116">
        <ele>66.2</ele>
        <time>2012-08-21T11:05:06.000Z</time>
      </trkpt>
      <trkpt lat="47.23619" lon="-1.61125">
        <ele>66.1</ele>
        <time>2012-08-21T11:05:08.000Z</time>
      </trkpt>
      <trkpt lat="47.23622" lon="-1.61131">
        <ele>66.7</ele>
        <time>2012-08-21T11:05:10.000Z</time>
      </trkpt>
      <trkpt lat="47.23625" lon="-1.6114">
        <ele>66.6</ele>
        <time>2012-08-21T11:05:12.000Z</time>
      </trkpt>
      <trkpt lat="47.23627" lon="-1.6115">
        <ele>66.5</ele>
        <time>2012-08-21T11:05:14.000Z</time>
      </trkpt>
      <trkpt lat="47.23631" lon="-1.6116">
        <ele>67</ele>
        <time>2012-08-21T11:05:16.000Z</time>
      </trkpt>
      <trkpt lat="47.23633" lon="-1.61166">
        <ele>67.5</ele>
        <time>2012-08-21T11:05:18.000Z</time>
      </trkpt>
      <trkpt lat="47.23637" lon="-1.61174">
        <ele>67.4</ele>
        <time>2012-08-21T11:05:20.000Z</time>
      </trkpt>
      <trkpt lat="47.2364" lon="-1.61184">
        <ele>67.6</ele>
        <time>2012-08-21T11:05:22.000Z</time>
      </trkpt>
      <trkpt lat="47.23643" lon="-1.61192">
        <ele>66.6</ele>
        <time>2012-08-21T11:05:24.000Z</time>
      </trkpt>
      <trkpt lat="47.23648" lon="-1.612">
        <ele>67.1</ele>
        <time>2012-08-21T11:05:26.000Z</time>
      </trkpt>
      <trkpt lat="47.23651" lon="-1.61206">
        <ele>67.6</ele>
        <time>2012-08-21T11:05:28.000Z</time>
      </trkpt>
      <trkpt lat="47.23652" lon="-1.61217">
        <ele>67.6</ele>
        <time>2012-08-21T11:05:31.000Z</time>
      </trkpt>
      <trkpt lat="47.23656" lon="-1.6122">
        <ele>67</ele>
        <time>2012-08-21T11:05:32.000Z</time>
      </trkpt>
      <trkpt lat="47.23661" lon="-1.61225">
        <ele>66.3</ele>
        <time>2012-08-21T11:05:33.000Z</time>
      </trkpt>
      <trkpt lat="47.23664" lon="-1.61232">
        <ele>66.5</ele>
        <time>2012-08-21T11:05:35.000Z</time>
      </trkpt>
      <trkpt lat="47.23665" lon="-1.61242">
        <ele>66.9</ele>
        <time>2012-08-21T11:05:38.000Z</time>
      </trkpt>
      <trkpt lat="47.23666" lon="-1.61252">
        <ele>67</ele>
        <time>2012-08-21T11:05:40.000Z</time>
      </trkpt>
      <trkpt lat="47.23667" lon="-1.6126">
        <ele>67.6</ele>
        <time>2012-08-21T11:05:42.000Z</time>
      </trkpt>
      <trkpt lat="47.23668" lon="-1.61267">
        <ele>67.2</ele>
        <time>2012-08-21T11:05:44.000Z</time>
      </trkpt>
      <trkpt lat="47.23671" lon="-1.61278">
        <ele>67.2</ele>
        <time>2012-08-21T11:05:46.000Z</time>
      </trkpt>
      <trkpt lat="47.23674" lon="-1.61288">
        <ele>67.7</ele>
        <time>2012-08-21T11:05:48.000Z</time>
      </trkpt>
      <trkpt lat="47.23678" lon="-1.61294">
        <ele>67.8</ele>
        <time>2012-08-21T11:05:49.000Z</time>
      </trkpt>
      <trkpt lat="47.23682" lon="-1.613">
        <ele>67.9</ele>
        <time>2012-08-21T11:05:51.000Z</time>
      </trkpt>
      <trkpt lat="47.23686" lon="-1.61305">
        <ele>68.1</ele>
        <time>2012-08-21T11:05:52.000Z</time>
      </trkpt>
      <trkpt lat="47.23692" lon="-1.61312">
        <ele>68.1</ele>
        <time>2012-08-21T11:05:54.000Z</time>
      </trkpt>
      <trkpt lat="47.23696" lon="-1.61315">
        <ele>68.3</ele>
        <time>2012-08-21T11:05:55.000Z</time>
      </trkpt>
      <trkpt lat="47.23701" lon="-1.61321">
        <ele>68.3</ele>
        <time>2012-08-21T11:05:57.000Z</time>
      </trkpt>
      <trkpt lat="47.23709" lon="-1.61325">
        <ele>68.4</ele>
        <time>2012-08-21T11:05:59.000Z</time>
      </trkpt>
      <trkpt lat="47.23714" lon="-1.61326">
        <ele>68.7</ele>
        <time>2012-08-21T11:06:01.000Z</time>
      </trkpt>
      <trkpt lat="47.23718" lon="-1.6133">
        <ele>68.6</ele>
        <time>2012-08-21T11:06:03.000Z</time>
      </trkpt>
      <trkpt lat="47.23722" lon="-1.61336">
        <ele>69.6</ele>
        <time>2012-08-21T11:06:06.000Z</time>
      </trkpt>
      <trkpt lat="47.23726" lon="-1.61345">
        <ele>68.9</ele>
        <time>2012-08-21T11:06:08.000Z</time>
      </trkpt>
      <trkpt lat="47.23728" lon="-1.61352">
        <ele>69</ele>
        <time>2012-08-21T11:06:11.000Z</time>
      </trkpt>
      <trkpt lat="47.2373" lon="-1.6136">
        <ele>69.4</ele>
        <time>2012-08-21T11:06:14.000Z</time>
      </trkpt>
      <trkpt lat="47.23731" lon="-1.61368">
        <ele>69.4</ele>
        <time>2012-08-21T11:06:16.000Z</time>
      </trkpt>
      <trkpt lat="47.2373" lon="-1.61376">
        <ele>69.7</ele>
        <time>2012-08-21T11:06:19.000Z</time>
      </trkpt>
      <trkpt lat="47.23732" lon="-1.61387">
        <ele>69.4</ele>
        <time>2012-08-21T11:06:21.000Z</time>
      </trkpt>
      <trkpt lat="47.23733" lon="-1.61394">
        <ele>69.1</ele>
        <time>2012-08-21T11:06:23.000Z</time>
      </trkpt>
      <trkpt lat="47.23734" lon="-1.61404">
        <ele>67.9</ele>
        <time>2012-08-21T11:06:25.000Z</time>
      </trkpt>
      <trkpt lat="47.23736" lon="-1.6141">
        <ele>67.4</ele>
        <time>2012-08-21T11:06:26.000Z</time>
      </trkpt>
      <trkpt lat="47.23738" lon="-1.61416">
        <ele>67.7</ele>
        <time>2012-08-21T11:06:27.000Z</time>
      </trkpt>
      <trkpt lat="47.2374" lon="-1.61423">
        <ele>67.9</ele>
        <time>2012-08-21T11:06:28.000Z</time>
      </trkpt>
      <trkpt lat="47.23741" lon="-1.61434">
        <ele>67.7</ele>
        <time>2012-08-21T11:06:30.000Z</time>
      </trkpt>
      <trkpt lat="47.23734" lon="-1.61437">
        <ele>67.4</ele>
        <time>2012-08-21T11:06:32.000Z</time>
      </trkpt>
      <trkpt lat="47.23732" lon="-1.61446">
        <ele>67.7</ele>
        <time>2012-08-21T11:06:35.000Z</time>
      </trkpt>
      <trkpt lat="47.23728" lon="-1.61454">
        <ele>66.8</ele>
        <time>2012-08-21T11:06:37.000Z</time>
      </trkpt>
      <trkpt lat="47.23723" lon="-1.61462">
        <ele>66.3</ele>
        <time>2012-08-21T11:06:39.000Z</time>
      </trkpt>
      <trkpt lat="47.23722" lon="-1.6147">
        <ele>66.5</ele>
        <time>2012-08-21T11:06:41.000Z</time>
      </trkpt>
      <trkpt lat="47.23721" lon="-1.61478">
        <ele>66.6</ele>
        <time>2012-08-21T11:06:43.000Z</time>
      </trkpt>
      <trkpt lat="47.23725" lon="-1.61485">
        <ele>67</ele>
        <time>2012-08-21T11:06:45.000Z</time>
      </trkpt>
      <trkpt lat="47.23725" lon="-1.61495">
        <ele>68.2</ele>
        <time>2012-08-21T11:06:47.000Z</time>
      </trkpt>
      <trkpt lat="47.23731" lon="-1.61503">
        <ele>69.4</ele>
        <time>2012-08-21T11:06:49.000Z</time>
      </trkpt>
      <trkpt lat="47.23733" lon="-1.61513">
        <ele>70.3</ele>
        <time>2012-08-21T11:06:51.000Z</time>
      </trkpt>
      <trkpt lat="47.23736" lon="-1.6152">
        <ele>70.9</ele>
        <time>2012-08-21T11:06:53.000Z</time>
      </trkpt>
      <trkpt lat="47.2374" lon="-1.61526">
        <ele>71.4</ele>
        <time>2012-08-21T11:06:54.000Z</time>
      </trkpt>
      <trkpt lat="47.23744" lon="-1.6153">
        <ele>71.4</ele>
        <time>2012-08-21T11:06:56.000Z</time>
      </trkpt>
      <trkpt lat="47.23748" lon="-1.61526">
        <ele>70.6</ele>
        <time>2012-08-21T11:06:58.000Z</time>
      </trkpt>
      <trkpt lat="47.23752" lon="-1.61524">
        <ele>70.6</ele>
        <time>2012-08-21T11:07:00.000Z</time>
      </trkpt>
      <trkpt lat="47.23757" lon="-1.61519">
        <ele>71.1</ele>
        <time>2012-08-21T11:07:03.000Z</time>
      </trkpt>
      <trkpt lat="47.2376" lon="-1.6151">
        <ele>69.9</ele>
        <time>2012-08-21T11:07:05.000Z</time>
      </trkpt>
      <trkpt lat="47.23766" lon="-1.61509">
        <ele>70.3</ele>
        <time>2012-08-21T11:07:07.000Z</time>
      </trkpt>
      <trkpt lat="47.23771" lon="-1.61506">
        <ele>70.9</ele>
        <time>2012-08-21T11:07:09.000Z</time>
      </trkpt>
      <trkpt lat="47.23777" lon="-1.61502">
        <ele>71.1</ele>
        <time>2012-08-21T11:07:11.000Z</time>
      </trkpt>
      <trkpt lat="47.23781" lon="-1.61491">
        <ele>70.7</ele>
        <time>2012-08-21T11:07:13.000Z</time>
      </trkpt>
      <trkpt lat="47.23779" lon="-1.61485">
        <ele>70.7</ele>
        <time>2012-08-21T11:07:14.000Z</time>
      </trkpt>
      <trkpt lat="47.23784" lon="-1.61478">
        <ele>69.7</ele>
        <time>2012-08-21T11:07:16.000Z</time>
      </trkpt>
      <trkpt lat="47.23785" lon="-1.61467">
        <ele>69.4</ele>
        <time>2012-08-21T11:07:18.000Z</time>
      </trkpt>
      <trkpt lat="47.23788" lon="-1.61458">
        <ele>69.3</ele>
        <time>2012-08-21T11:07:20.000Z</time>
      </trkpt>
      <trkpt lat="47.23786" lon="-1.6145">
        <ele>69.1</ele>
        <time>2012-08-21T11:07:21.000Z</time>
      </trkpt>
      <trkpt lat="47.23785" lon="-1.61442">
        <ele>69.7</ele>
        <time>2012-08-21T11:07:22.000Z</time>
      </trkpt>
      <trkpt lat="47.23784" lon="-1.6143">
        <ele>69.8</ele>
        <time>2012-08-21T11:07:24.000Z</time>
      </trkpt>
      <trkpt lat="47.23786" lon="-1.61419">
        <ele>70.8</ele>
        <time>2012-08-21T11:07:26.000Z</time>
      </trkpt>
      <trkpt lat="47.23788" lon="-1.61411">
        <ele>69.5</ele>
        <time>2012-08-21T11:07:28.000Z</time>
      </trkpt>
      <trkpt lat="47.23787" lon="-1.61399">
        <ele>69.5</ele>
        <time>2012-08-21T11:07:30.000Z</time>
      </trkpt>
      <trkpt lat="47.23789" lon="-1.61391">
        <ele>69</ele>
        <time>2012-08-21T11:07:32.000Z</time>
      </trkpt>
      <trkpt lat="47.2379" lon="-1.61382">
        <ele>68.3</ele>
        <time>2012-08-21T11:07:34.000Z</time>
      </trkpt>
      <trkpt lat="47.2379" lon="-1.61371">
        <ele>68.1</ele>
        <time>2012-08-21T11:07:36.000Z</time>
      </trkpt>
      <trkpt lat="47.23788" lon="-1.61365">
        <ele>67.9</ele>
        <time>2012-08-21T11:07:38.000Z</time>
      </trkpt>
      <trkpt lat="47.23785" lon="-1.61355">
        <ele>65.1</ele>
        <time>2012-08-21T11:08:07.000Z</time>
      </trkpt>
      <trkpt lat="47.23778" lon="-1.61345">
        <ele>64.4</ele>
        <time>2012-08-21T11:08:08.000Z</time>
      </trkpt>
      <trkpt lat="47.23772" lon="-1.61338">
        <ele>64.2</ele>
        <time>2012-08-21T11:08:09.000Z</time>
      </trkpt>
      <trkpt lat="47.23766" lon="-1.61331">
        <ele>64.1</ele>
        <time>2012-08-21T11:08:10.000Z</time>
      </trkpt>
      <trkpt lat="47.23759" lon="-1.61325">
        <ele>64.7</ele>
        <time>2012-08-21T11:08:12.000Z</time>
      </trkpt>
      <trkpt lat="47.23753" lon="-1.6132">
        <ele>65.5</ele>
        <time>2012-08-21T11:08:14.000Z</time>
      </trkpt>
      <trkpt lat="47.23748" lon="-1.61313">
        <ele>65.7</ele>
        <time>2012-08-21T11:08:16.000Z</time>
      </trkpt>
      <trkpt lat="47.2374" lon="-1.61309">
        <ele>66.3</ele>
        <time>2012-08-21T11:08:18.000Z</time>
      </trkpt>
      <trkpt lat="47.23733" lon="-1.61309">
        <ele>66</ele>
        <time>2012-08-21T11:08:20.000Z</time>
      </trkpt>
      <trkpt lat="47.23725" lon="-1.61307">
        <ele>66.9</ele>
        <time>2012-08-21T11:08:22.000Z</time>
      </trkpt>
      <trkpt lat="47.23721" lon="-1.61308">
        <ele>66.9</ele>
        <time>2012-08-21T11:08:23.000Z</time>
      </trkpt>
      <trkpt lat="47.23713" lon="-1.61301">
        <ele>66.5</ele>
        <time>2012-08-21T11:08:26.000Z</time>
      </trkpt>
      <trkpt lat="47.23707" lon="-1.61294">
        <ele>66.5</ele>
        <time>2012-08-21T11:08:28.000Z</time>
      </trkpt>
      <trkpt lat="47.23702" lon="-1.61293">
        <ele>66.9</ele>
        <time>2012-08-21T11:08:30.000Z</time>
      </trkpt>
      <trkpt lat="47.23697" lon="-1.6129">
        <ele>67.6</ele>
        <time>2012-08-21T11:08:32.000Z</time>
      </trkpt>
      <trkpt lat="47.23692" lon="-1.61284">
        <ele>67.7</ele>
        <time>2012-08-21T11:08:36.000Z</time>
      </trkpt>
      <trkpt lat="47.23693" lon="-1.61273">
        <ele>67.5</ele>
        <time>2012-08-21T11:08:40.000Z</time>
      </trkpt>
      <trkpt lat="47.2369" lon="-1.61263">
        <ele>68.5</ele>
        <time>2012-08-21T11:08:42.000Z</time>
      </trkpt>
      <trkpt lat="47.23689" lon="-1.61254">
        <ele>69.1</ele>
        <time>2012-08-21T11:08:45.000Z</time>
      </trkpt>
      <trkpt lat="47.23687" lon="-1.61244">
        <ele>70.5</ele>
        <time>2012-08-21T11:08:48.000Z</time>
      </trkpt>
      <trkpt lat="47.23685" lon="-1.61236">
        <ele>68.3</ele>
        <time>2012-08-21T11:08:51.000Z</time>
      </trkpt>
      <trkpt lat="47.23682" lon="-1.61224">
        <ele>67.6</ele>
        <time>2012-08-21T11:08:55.000Z</time>
      </trkpt>
      <trkpt lat="47.23681" lon="-1.61217">
        <ele>67.9</ele>
        <time>2012-08-21T11:08:57.000Z</time>
      </trkpt>
      <trkpt lat="47.2368" lon="-1.6121">
        <ele>67.4</ele>
        <time>2012-08-21T11:08:59.000Z</time>
      </trkpt>
      <trkpt lat="47.23679" lon="-1.61201">
        <ele>66.7</ele>
        <time>2012-08-21T11:09:01.000Z</time>
      </trkpt>
      <trkpt lat="47.23675" lon="-1.61192">
        <ele>67.2</ele>
        <time>2012-08-21T11:09:04.000Z</time>
      </trkpt>
      <trkpt lat="47.2367" lon="-1.61187">
        <ele>67.7</ele>
        <time>2012-08-21T11:09:06.000Z</time>
      </trkpt>
      <trkpt lat="47.23667" lon="-1.61177">
        <ele>67.6</ele>
        <time>2012-08-21T11:09:08.000Z</time>
      </trkpt>
      <trkpt lat="47.23663" lon="-1.6117">
        <ele>68.1</ele>
        <time>2012-08-21T11:09:11.000Z</time>
      </trkpt>
      <trkpt lat="47.23658" lon="-1.61164">
        <ele>68.8</ele>
        <time>2012-08-21T11:09:13.000Z</time>
      </trkpt>
      <trkpt lat="47.23653" lon="-1.61155">
        <ele>69.4</ele>
        <time>2012-08-21T11:09:15.000Z</time>
      </trkpt>
      <trkpt lat="47.23649" lon="-1.6115">
        <ele>69</ele>
        <time>2012-08-21T11:09:16.000Z</time>
      </trkpt>
      <trkpt lat="47.23645" lon="-1.61145">
        <ele>69</ele>
        <time>2012-08-21T11:09:17.000Z</time>
      </trkpt>
      <trkpt lat="47.23642" lon="-1.61137">
        <ele>70.5</ele>
        <time>2012-08-21T11:09:20.000Z</time>
      </trkpt>
      <trkpt lat="47.2364" lon="-1.6113">
        <ele>70.3</ele>
        <time>2012-08-21T11:09:21.000Z</time>
      </trkpt>
      <trkpt lat="47.23638" lon="-1.61122">
        <ele>69.9</ele>
        <time>2012-08-21T11:09:23.000Z</time>
      </trkpt>
      <trkpt lat="47.23636" lon="-1.61112">
        <ele>68.9</ele>
        <time>2012-08-21T11:09:26.000Z</time>
      </trkpt>
      <trkpt lat="47.23637" lon="-1.61104">
        <ele>68.2</ele>
        <time>2012-08-21T11:09:28.000Z</time>
      </trkpt>
      <trkpt lat="47.23638" lon="-1.61095">
        <ele>67.9</ele>
        <time>2012-08-21T11:09:31.000Z</time>
      </trkpt>
      <trkpt lat="47.23636" lon="-1.61084">
        <ele>68.7</ele>
        <time>2012-08-21T11:09:33.000Z</time>
      </trkpt>
      <trkpt lat="47.23639" lon="-1.61078">
        <ele>68.8</ele>
        <time>2012-08-21T11:09:35.000Z</time>
      </trkpt>
      <trkpt lat="47.23639" lon="-1.61071">
        <ele>70.1</ele>
        <time>2012-08-21T11:09:37.000Z</time>
      </trkpt>
      <trkpt lat="47.2364" lon="-1.61063">
        <ele>69</ele>
        <time>2012-08-21T11:09:40.000Z</time>
      </trkpt>
      <trkpt lat="47.23639" lon="-1.61056">
        <ele>68.2</ele>
        <time>2012-08-21T11:09:42.000Z</time>
      </trkpt>
      <trkpt lat="47.2364" lon="-1.61048">
        <ele>66.7</ele>
        <time>2012-08-21T11:09:45.000Z</time>
      </trkpt>
      <trkpt lat="47.23645" lon="-1.61046">
        <ele>67</ele>
        <time>2012-08-21T11:09:47.000Z</time>
      </trkpt>
      <trkpt lat="47.23645" lon="-1.61038">
        <ele>67.4</ele>
        <time>2012-08-21T11:09:49.000Z</time>
      </trkpt>
      <trkpt lat="47.23649" lon="-1.6103">
        <ele>66.9</ele>
        <time>2012-08-21T11:09:52.000Z</time>
      </trkpt>
      <trkpt lat="47.23651" lon="-1.61022">
        <ele>66</ele>
        <time>2012-08-21T11:09:54.000Z</time>
      </trkpt>
      <trkpt lat="47.23652" lon="-1.61013">
        <ele>65.4</ele>
        <time>2012-08-21T11:09:55.000Z</time>
      </trkpt>
      <trkpt lat="47.23655" lon="-1.61004">
        <ele>66</ele>
        <time>2012-08-21T11:09:58.000Z</time>
      </trkpt>
      <trkpt lat="47.23657" lon="-1.60997">
        <ele>66.5</ele>
        <time>2012-08-21T11:10:01.000Z</time>
      </trkpt>
      <trkpt lat="47.23654" lon="-1.60992">
        <ele>67.5</ele>
        <time>2012-08-21T11:10:02.000Z</time>
      </trkpt>
      <trkpt lat="47.23653" lon="-1.60982">
        <ele>68</ele>
        <time>2012-08-21T11:10:05.000Z</time>
      </trkpt>
      <trkpt lat="47.23654" lon="-1.60975">
        <ele>68.1</ele>
        <time>2012-08-21T11:10:07.000Z</time>
      </trkpt>
      <trkpt lat="47.23656" lon="-1.60968">
        <ele>67.6</ele>
        <time>2012-08-21T11:10:09.000Z</time>
      </trkpt>
      <trkpt lat="47.2366" lon="-1.60961">
        <ele>66.4</ele>
        <time>2012-08-21T11:10:11.000Z</time>
      </trkpt>
      <trkpt lat="47.2366" lon="-1.6095">
        <ele>67.1</ele>
        <time>2012-08-21T11:10:13.000Z</time>
      </trkpt>
      <trkpt lat="47.23659" lon="-1.60942">
        <ele>66.8</ele>
        <time>2012-08-21T11:10:15.000Z</time>
      </trkpt>
      <trkpt lat="47.23658" lon="-1.60935">
        <ele>66.4</ele>
        <time>2012-08-21T11:10:16.000Z</time>
      </trkpt>
      <trkpt lat="47.23657" lon="-1.60926">
        <ele>65.9</ele>
        <time>2012-08-21T11:10:18.000Z</time>
      </trkpt>
      <trkpt lat="47.23654" lon="-1.6092">
        <ele>65.1</ele>
        <time>2012-08-21T11:10:20.000Z</time>
      </trkpt>
      <trkpt lat="47.23652" lon="-1.60913">
        <ele>65.3</ele>
        <time>2012-08-21T11:10:22.000Z</time>
      </trkpt>
      <trkpt lat="47.23649" lon="-1.60904">
        <ele>66.4</ele>
        <time>2012-08-21T11:10:24.000Z</time>
      </trkpt>
      <trkpt lat="47.23648" lon="-1.60894">
        <ele>66.4</ele>
        <time>2012-08-21T11:10:27.000Z</time>
      </trkpt>
      <trkpt lat="47.23649" lon="-1.60884">
        <ele>65.6</ele>
        <time>2012-08-21T11:10:30.000Z</time>
      </trkpt>
      <trkpt lat="47.2365" lon="-1.60877">
        <ele>65.3</ele>
        <time>2012-08-21T11:10:32.000Z</time>
      </trkpt>
      <trkpt lat="47.23654" lon="-1.60866">
        <ele>65.3</ele>
        <time>2012-08-21T11:10:35.000Z</time>
      </trkpt>
      <trkpt lat="47.2366" lon="-1.60861">
        <ele>65.7</ele>
        <time>2012-08-21T11:10:37.000Z</time>
      </trkpt>
      <trkpt lat="47.23661" lon="-1.60854">
        <ele>65.5</ele>
        <time>2012-08-21T11:10:38.000Z</time>
      </trkpt>
      <trkpt lat="47.23664" lon="-1.60848">
        <ele>65.9</ele>
        <time>2012-08-21T11:10:40.000Z</time>
      </trkpt>
      <trkpt lat="47.23669" lon="-1.60839">
        <ele>65.4</ele>
        <time>2012-08-21T11:10:42.000Z</time>
      </trkpt>
      <trkpt lat="47.23671" lon="-1.60831">
        <ele>65.7</ele>
        <time>2012-08-21T11:10:44.000Z</time>
      </trkpt>
      <trkpt lat="47.23672" lon="-1.60823">
        <ele>66.3</ele>
        <time>2012-08-21T11:10:46.000Z</time>
      </trkpt>
      <trkpt lat="47.23676" lon="-1.60815">
        <ele>65.6</ele>
        <time>2012-08-21T11:10:48.000Z</time>
      </trkpt>
      <trkpt lat="47.2368" lon="-1.60809">
        <ele>64.3</ele>
        <time>2012-08-21T11:10:50.000Z</time>
      </trkpt>
      <trkpt lat="47.23684" lon="-1.60806">
        <ele>63.7</ele>
        <time>2012-08-21T11:10:52.000Z</time>
      </trkpt>
      <trkpt lat="47.23689" lon="-1.60798">
        <ele>63.5</ele>
        <time>2012-08-21T11:10:54.000Z</time>
      </trkpt>
      <trkpt lat="47.23693" lon="-1.60791">
        <ele>63</ele>
        <time>2012-08-21T11:10:56.000Z</time>
      </trkpt>
      <trkpt lat="47.23696" lon="-1.60782">
        <ele>62.2</ele>
        <time>2012-08-21T11:10:59.000Z</time>
      </trkpt>
      <trkpt lat="47.23698" lon="-1.60774">
        <ele>61.7</ele>
        <time>2012-08-21T11:11:01.000Z</time>
      </trkpt>
      <trkpt lat="47.23702" lon="-1.6077">
        <ele>62.4</ele>
        <time>2012-08-21T11:11:03.000Z</time>
      </trkpt>
      <trkpt lat="47.23699" lon="-1.60762">
        <ele>63.1</ele>
        <time>2012-08-21T11:11:05.000Z</time>
      </trkpt>
      <trkpt lat="47.23698" lon="-1.60754">
        <ele>62.7</ele>
        <time>2012-08-21T11:11:07.000Z</time>
      </trkpt>
      <trkpt lat="47.23694" lon="-1.60749">
        <ele>62.5</ele>
        <time>2012-08-21T11:11:08.000Z</time>
      </trkpt>
      <trkpt lat="47.2369" lon="-1.60742">
        <ele>62.8</ele>
        <time>2012-08-21T11:11:10.000Z</time>
      </trkpt>
      <trkpt lat="47.23687" lon="-1.60736">
        <ele>63.4</ele>
        <time>2012-08-21T11:11:11.000Z</time>
      </trkpt>
      <trkpt lat="47.23681" lon="-1.6073">
        <ele>65.1</ele>
        <time>2012-08-21T11:11:13.000Z</time>
      </trkpt>
      <trkpt lat="47.23675" lon="-1.60726">
        <ele>66.2</ele>
        <time>2012-08-21T11:11:14.000Z</time>
      </trkpt>
      <trkpt lat="47.23668" lon="-1.60719">
        <ele>67.2</ele>
        <time>2012-08-21T11:11:16.000Z</time>
      </trkpt>
      <trkpt lat="47.23662" lon="-1.60712">
        <ele>67.8</ele>
        <time>2012-08-21T11:11:18.000Z</time>
      </trkpt>
      <trkpt lat="47.23658" lon="-1.60708">
        <ele>66.7</ele>
        <time>2012-08-21T11:11:21.000Z</time>
      </trkpt>
      <trkpt lat="47.23652" lon="-1.60704">
        <ele>66.5</ele>
        <time>2012-08-21T11:11:23.000Z</time>
      </trkpt>
      <trkpt lat="47.23646" lon="-1.60697">
        <ele>66.4</ele>
        <time>2012-08-21T11:11:25.000Z</time>
      </trkpt>
      <trkpt lat="47.23641" lon="-1.60694">
        <ele>66.6</ele>
        <time>2012-08-21T11:11:27.000Z</time>
      </trkpt>
      <trkpt lat="47.23636" lon="-1.60691">
        <ele>66.5</ele>
        <time>2012-08-21T11:11:29.000Z</time>
      </trkpt>
      <trkpt lat="47.23632" lon="-1.60686">
        <ele>67</ele>
        <time>2012-08-21T11:11:30.000Z</time>
      </trkpt>
      <trkpt lat="47.2363" lon="-1.6068">
        <ele>67.7</ele>
        <time>2012-08-21T11:11:32.000Z</time>
      </trkpt>
      <trkpt lat="47.23624" lon="-1.60672">
        <ele>67.9</ele>
        <time>2012-08-21T11:11:34.000Z</time>
      </trkpt>
      <trkpt lat="47.2362" lon="-1.60671">
        <ele>67.8</ele>
        <time>2012-08-21T11:11:35.000Z</time>
      </trkpt>
      <trkpt lat="47.23616" lon="-1.60664">
        <ele>69.7</ele>
        <time>2012-08-21T11:11:37.000Z</time>
      </trkpt>
      <trkpt lat="47.23608" lon="-1.60653">
        <ele>69.9</ele>
        <time>2012-08-21T11:11:39.000Z</time>
      </trkpt>
      <trkpt lat="47.23604" lon="-1.60646">
        <ele>69.4</ele>
        <time>2012-08-21T11:11:43.000Z</time>
      </trkpt>
      <trkpt lat="47.23598" lon="-1.60634">
        <ele>71</ele>
        <time>2012-08-21T11:11:46.000Z</time>
      </trkpt>
      <trkpt lat="47.23599" lon="-1.60627">
        <ele>70.6</ele>
        <time>2012-08-21T11:11:48.000Z</time>
      </trkpt>
      <trkpt lat="47.23597" lon="-1.60616">
        <ele>71</ele>
        <time>2012-08-21T11:11:51.000Z</time>
      </trkpt>
      <trkpt lat="47.23594" lon="-1.60609">
        <ele>71.2</ele>
        <time>2012-08-21T11:11:53.000Z</time>
      </trkpt>
      <trkpt lat="47.23588" lon="-1.60603">
        <ele>73.1</ele>
        <time>2012-08-21T11:11:57.000Z</time>
      </trkpt>
      <trkpt lat="47.23583" lon="-1.60595">
        <ele>73.4</ele>
        <time>2012-08-21T11:12:00.000Z</time>
      </trkpt>
      <trkpt lat="47.23577" lon="-1.6059">
        <ele>73.7</ele>
        <time>2012-08-21T11:12:02.000Z</time>
      </trkpt>
      <trkpt lat="47.23573" lon="-1.60584">
        <ele>75.8</ele>
        <time>2012-08-21T11:12:04.000Z</time>
      </trkpt>
      <trkpt lat="47.23571" lon="-1.60578">
        <ele>75.6</ele>
        <time>2012-08-21T11:12:05.000Z</time>
      </trkpt>
      <trkpt lat="47.23568" lon="-1.60573">
        <ele>76.1</ele>
        <time>2012-08-21T11:12:06.000Z</time>
      </trkpt>
      <trkpt lat="47.23566" lon="-1.60566">
        <ele>76.2</ele>
        <time>2012-08-21T11:12:08.000Z</time>
      </trkpt>
      <trkpt lat="47.2356" lon="-1.6056">
        <ele>76.9</ele>
        <time>2012-08-21T11:12:09.000Z</time>
      </trkpt>
      <trkpt lat="47.2356" lon="-1.60552">
        <ele>76.2</ele>
        <time>2012-08-21T11:12:12.000Z</time>
      </trkpt>
      <trkpt lat="47.2356" lon="-1.60541">
        <ele>74.8</ele>
        <time>2012-08-21T11:12:15.000Z</time>
      </trkpt>
      <trkpt lat="47.2356" lon="-1.60534">
        <ele>75</ele>
        <time>2012-08-21T11:12:17.000Z</time>
      </trkpt>
      <trkpt lat="47.23559" lon="-1.60525">
        <ele>74.2</ele>
        <time>2012-08-21T11:12:19.000Z</time>
      </trkpt>
      <trkpt lat="47.23558" lon="-1.60518">
        <ele>74.3</ele>
        <time>2012-08-21T11:12:21.000Z</time>
      </trkpt>
      <trkpt lat="47.23555" lon="-1.6051">
        <ele>75.1</ele>
        <time>2012-08-21T11:12:23.000Z</time>
      </trkpt>
      <trkpt lat="47.23553" lon="-1.60503">
        <ele>74.8</ele>
        <time>2012-08-21T11:12:25.000Z</time>
      </trkpt>
      <trkpt lat="47.2355" lon="-1.60494">
        <ele>74.5</ele>
        <time>2012-08-21T11:12:27.000Z</time>
      </trkpt>
      <trkpt lat="47.23548" lon="-1.60488">
        <ele>74.9</ele>
        <time>2012-08-21T11:12:28.000Z</time>
      </trkpt>
      <trkpt lat="47.23547" lon="-1.6048">
        <ele>76.5</ele>
        <time>2012-08-21T11:12:30.000Z</time>
      </trkpt>
      <trkpt lat="47.23545" lon="-1.60472">
        <ele>76.3</ele>
        <time>2012-08-21T11:12:32.000Z</time>
      </trkpt>
      <trkpt lat="47.23544" lon="-1.60464">
        <ele>76.2</ele>
        <time>2012-08-21T11:12:35.000Z</time>
      </trkpt>
      <trkpt lat="47.23541" lon="-1.60458">
        <ele>74.7</ele>
        <time>2012-08-21T11:12:37.000Z</time>
      </trkpt>
      <trkpt lat="47.23539" lon="-1.60448">
        <ele>74</ele>
        <time>2012-08-21T11:12:39.000Z</time>
      </trkpt>
      <trkpt lat="47.23539" lon="-1.60441">
        <ele>73.7</ele>
        <time>2012-08-21T11:12:41.000Z</time>
      </trkpt>
      <trkpt lat="47.2354" lon="-1.60429">
        <ele>73.8</ele>
        <time>2012-08-21T11:12:44.000Z</time>
      </trkpt>
      <trkpt lat="47.23539" lon="-1.6042">
        <ele>74.7</ele>
        <time>2012-08-21T11:12:46.000Z</time>
      </trkpt>
      <trkpt lat="47.23537" lon="-1.60412">
        <ele>74</ele>
        <time>2012-08-21T11:12:48.000Z</time>
      </trkpt>
      <trkpt lat="47.23535" lon="-1.60404">
        <ele>73.3</ele>
        <time>2012-08-21T11:12:50.000Z</time>
      </trkpt>
      <trkpt lat="47.23535" lon="-1.60396">
        <ele>74.3</ele>
        <time>2012-08-21T11:12:52.000Z</time>
      </trkpt>
      <trkpt lat="47.23534" lon="-1.60387">
        <ele>74</ele>
        <time>2012-08-21T11:12:54.000Z</time>
      </trkpt>
      <trkpt lat="47.23534" lon="-1.60378">
        <ele>74.2</ele>
        <time>2012-08-21T11:12:57.000Z</time>
      </trkpt>
      <trkpt lat="47.23531" lon="-1.60368">
        <ele>75.3</ele>
        <time>2012-08-21T11:12:59.000Z</time>
      </trkpt>
      <trkpt lat="47.23531" lon="-1.60359">
        <ele>74.9</ele>
        <time>2012-08-21T11:13:01.000Z</time>
      </trkpt>
      <trkpt lat="47.23528" lon="-1.6035">
        <ele>75.3</ele>
        <time>2012-08-21T11:13:03.000Z</time>
      </trkpt>
      <trkpt lat="47.23528" lon="-1.60342">
        <ele>75.5</ele>
        <time>2012-08-21T11:13:05.000Z</time>
      </trkpt>
      <trkpt lat="47.23525" lon="-1.60335">
        <ele>74.9</ele>
        <time>2012-08-21T11:13:07.000Z</time>
      </trkpt>
      <trkpt lat="47.2352" lon="-1.60327">
        <ele>73.9</ele>
        <time>2012-08-21T11:13:10.000Z</time>
      </trkpt>
      <trkpt lat="47.23516" lon="-1.60323">
        <ele>73.9</ele>
        <time>2012-08-21T11:13:11.000Z</time>
      </trkpt>
      <trkpt lat="47.23511" lon="-1.60312">
        <ele>73.3</ele>
        <time>2012-08-21T11:13:14.000Z</time>
      </trkpt>
      <trkpt lat="47.23508" lon="-1.60306">
        <ele>74.5</ele>
        <time>2012-08-21T11:13:17.000Z</time>
      </trkpt>
      <trkpt lat="47.23503" lon="-1.603">
        <ele>74.9</ele>
        <time>2012-08-21T11:13:19.000Z</time>
      </trkpt>
      <trkpt lat="47.23495" lon="-1.60291">
        <ele>74.3</ele>
        <time>2012-08-21T11:13:21.000Z</time>
      </trkpt>
      <trkpt lat="47.23491" lon="-1.60286">
        <ele>74.4</ele>
        <time>2012-08-21T11:13:23.000Z</time>
      </trkpt>
      <trkpt lat="47.23488" lon="-1.60276">
        <ele>75.2</ele>
        <time>2012-08-21T11:13:27.000Z</time>
      </trkpt>
      <trkpt lat="47.23483" lon="-1.60272">
        <ele>76.2</ele>
        <time>2012-08-21T11:13:29.000Z</time>
      </trkpt>
      <trkpt lat="47.23479" lon="-1.60263">
        <ele>77.2</ele>
        <time>2012-08-21T11:13:32.000Z</time>
      </trkpt>
      <trkpt lat="47.23474" lon="-1.60257">
        <ele>76.9</ele>
        <time>2012-08-21T11:13:34.000Z</time>
      </trkpt>
      <trkpt lat="47.23469" lon="-1.60252">
        <ele>79.2</ele>
        <time>2012-08-21T11:13:36.000Z</time>
      </trkpt>
      <trkpt lat="47.23464" lon="-1.6025">
        <ele>79</ele>
        <time>2012-08-21T11:13:37.000Z</time>
      </trkpt>
      <trkpt lat="47.23458" lon="-1.60246">
        <ele>78.9</ele>
        <time>2012-08-21T11:13:39.000Z</time>
      </trkpt>
      <trkpt lat="47.23451" lon="-1.6024">
        <ele>79.4</ele>
        <time>2012-08-21T11:13:41.000Z</time>
      </trkpt>
      <trkpt lat="47.23445" lon="-1.60235">
        <ele>80.3</ele>
        <time>2012-08-21T11:13:43.000Z</time>
      </trkpt>
      <trkpt lat="47.23441" lon="-1.60231">
        <ele>80.2</ele>
        <time>2012-08-21T11:13:45.000Z</time>
      </trkpt>
      <trkpt lat="47.23436" lon="-1.60228">
        <ele>80.2</ele>
        <time>2012-08-21T11:13:47.000Z</time>
      </trkpt>
      <trkpt lat="47.23429" lon="-1.60226">
        <ele>79.6</ele>
        <time>2012-08-21T11:13:50.000Z</time>
      </trkpt>
      <trkpt lat="47.23424" lon="-1.60218">
        <ele>80.4</ele>
        <time>2012-08-21T11:13:55.000Z</time>
      </trkpt>
      <trkpt lat="47.23418" lon="-1.60213">
        <ele>79.5</ele>
        <time>2012-08-21T11:13:57.000Z</time>
      </trkpt>
      <trkpt lat="47.23415" lon="-1.60206">
        <ele>80.1</ele>
        <time>2012-08-21T11:13:58.000Z</time>
      </trkpt>
      <trkpt lat="47.23411" lon="-1.60202">
        <ele>80.3</ele>
        <time>2012-08-21T11:14:01.000Z</time>
      </trkpt>
      <trkpt lat="47.23409" lon="-1.60195">
        <ele>79.8</ele>
        <time>2012-08-21T11:14:03.000Z</time>
      </trkpt>
      <trkpt lat="47.23407" lon="-1.60186">
        <ele>77.8</ele>
        <time>2012-08-21T11:14:06.000Z</time>
      </trkpt>
      <trkpt lat="47.23405" lon="-1.60179">
        <ele>76.9</ele>
        <time>2012-08-21T11:14:07.000Z</time>
      </trkpt>
      <trkpt lat="47.23404" lon="-1.60169">
        <ele>77.6</ele>
        <time>2012-08-21T11:14:10.000Z</time>
      </trkpt>
      <trkpt lat="47.234" lon="-1.6016">
        <ele>78</ele>
        <time>2012-08-21T11:14:12.000Z</time>
      </trkpt>
      <trkpt lat="47.23396" lon="-1.60152">
        <ele>78.7</ele>
        <time>2012-08-21T11:14:14.000Z</time>
      </trkpt>
      <trkpt lat="47.23393" lon="-1.60144">
        <ele>77.4</ele>
        <time>2012-08-21T11:14:16.000Z</time>
      </trkpt>
      <trkpt lat="47.23391" lon="-1.60136">
        <ele>77.9</ele>
        <time>2012-08-21T11:14:18.000Z</time>
      </trkpt>
      <trkpt lat="47.23387" lon="-1.60129">
        <ele>78.2</ele>
        <time>2012-08-21T11:14:20.000Z</time>
      </trkpt>
      <trkpt lat="47.23383" lon="-1.60125">
        <ele>78.4</ele>
        <time>2012-08-21T11:14:22.000Z</time>
      </trkpt>
      <trkpt lat="47.23376" lon="-1.60111">
        <ele>77.5</ele>
        <time>2012-08-21T11:14:24.000Z</time>
      </trkpt>
      <trkpt lat="47.23371" lon="-1.60105">
        <ele>77.3</ele>
        <time>2012-08-21T11:14:25.000Z</time>
      </trkpt>
      <trkpt lat="47.23372" lon="-1.60097">
        <ele>75</ele>
        <time>2012-08-21T11:14:28.000Z</time>
      </trkpt>
      <trkpt lat="47.23371" lon="-1.60089">
        <ele>75.7</ele>
        <time>2012-08-21T11:14:30.000Z</time>
      </trkpt>
      <trkpt lat="47.23368" lon="-1.60083">
        <ele>75.8</ele>
        <time>2012-08-21T11:14:31.000Z</time>
      </trkpt>
      <trkpt lat="47.23365" lon="-1.60077">
        <ele>74.6</ele>
        <time>2012-08-21T11:14:32.000Z</time>
      </trkpt>
      <trkpt lat="47.23363" lon="-1.60067">
        <ele>73.2</ele>
        <time>2012-08-21T11:14:35.000Z</time>
      </trkpt>
      <trkpt lat="47.2336" lon="-1.60059">
        <ele>73.4</ele>
        <time>2012-08-21T11:14:37.000Z</time>
      </trkpt>
      <trkpt lat="47.23364" lon="-1.60054">
        <ele>75.5</ele>
        <time>2012-08-21T11:14:39.000Z</time>
      </trkpt>
      <trkpt lat="47.23362" lon="-1.60048">
        <ele>75.9</ele>
        <time>2012-08-21T11:14:41.000Z</time>
      </trkpt>
      <trkpt lat="47.2336" lon="-1.60039">
        <ele>75.8</ele>
        <time>2012-08-21T11:14:43.000Z</time>
      </trkpt>
      <trkpt lat="47.23358" lon="-1.60028">
        <ele>74.8</ele>
        <time>2012-08-21T11:14:45.000Z</time>
      </trkpt>
      <trkpt lat="47.23354" lon="-1.60017">
        <ele>74.6</ele>
        <time>2012-08-21T11:14:47.000Z</time>
      </trkpt>
      <trkpt lat="47.2335" lon="-1.60008">
        <ele>74.2</ele>
        <time>2012-08-21T11:14:49.000Z</time>
      </trkpt>
      <trkpt lat="47.23347" lon="-1.59998">
        <ele>74.5</ele>
        <time>2012-08-21T11:14:51.000Z</time>
      </trkpt>
      <trkpt lat="47.23347" lon="-1.59992">
        <ele>74.7</ele>
        <time>2012-08-21T11:14:53.000Z</time>
      </trkpt>
      <trkpt lat="47.23349" lon="-1.59984">
        <ele>74.7</ele>
        <time>2012-08-21T11:14:56.000Z</time>
      </trkpt>
      <trkpt lat="47.23345" lon="-1.59974">
        <ele>74.8</ele>
        <time>2012-08-21T11:14:58.000Z</time>
      </trkpt>
      <trkpt lat="47.23344" lon="-1.59966">
        <ele>74.9</ele>
        <time>2012-08-21T11:15:00.000Z</time>
      </trkpt>
      <trkpt lat="47.23343" lon="-1.59958">
        <ele>75</ele>
        <time>2012-08-21T11:15:03.000Z</time>
      </trkpt>
      <trkpt lat="47.23338" lon="-1.59948">
        <ele>75.1</ele>
        <time>2012-08-21T11:15:05.000Z</time>
      </trkpt>
      <trkpt lat="47.23336" lon="-1.59935">
        <ele>74.8</ele>
        <time>2012-08-21T11:15:08.000Z</time>
      </trkpt>
      <trkpt lat="47.23334" lon="-1.59928">
        <ele>75</ele>
        <time>2012-08-21T11:15:10.000Z</time>
      </trkpt>
      <trkpt lat="47.23333" lon="-1.59922">
        <ele>75.9</ele>
        <time>2012-08-21T11:15:12.000Z</time>
      </trkpt>
      <trkpt lat="47.23334" lon="-1.59912">
        <ele>75.6</ele>
        <time>2012-08-21T11:15:15.000Z</time>
      </trkpt>
      <trkpt lat="47.23328" lon="-1.59904">
        <ele>76.1</ele>
        <time>2012-08-21T11:15:17.000Z</time>
      </trkpt>
      <trkpt lat="47.23325" lon="-1.59898">
        <ele>76.6</ele>
        <time>2012-08-21T11:15:19.000Z</time>
      </trkpt>
      <trkpt lat="47.23321" lon="-1.59894">
        <ele>77.5</ele>
        <time>2012-08-21T11:15:21.000Z</time>
      </trkpt>
      <trkpt lat="47.23316" lon="-1.59892">
        <ele>78.2</ele>
        <time>2012-08-21T11:15:22.000Z</time>
      </trkpt>
      <trkpt lat="47.23312" lon="-1.59889">
        <ele>78.3</ele>
        <time>2012-08-21T11:15:23.000Z</time>
      </trkpt>
      <trkpt lat="47.23308" lon="-1.59887">
        <ele>77</ele>
        <time>2012-08-21T11:15:25.000Z</time>
      </trkpt>
      <trkpt lat="47.23302" lon="-1.59885">
        <ele>77.2</ele>
        <time>2012-08-21T11:15:27.000Z</time>
      </trkpt>
      <trkpt lat="47.23296" lon="-1.59881">
        <ele>77.6</ele>
        <time>2012-08-21T11:15:29.000Z</time>
      </trkpt>
      <trkpt lat="47.2329" lon="-1.59876">
        <ele>78.3</ele>
        <time>2012-08-21T11:15:31.000Z</time>
      </trkpt>
      <trkpt lat="47.23285" lon="-1.5987">
        <ele>79.7</ele>
        <time>2012-08-21T11:15:37.000Z</time>
      </trkpt>
      <trkpt lat="47.2328" lon="-1.59866">
        <ele>79.2</ele>
        <time>2012-08-21T11:15:39.000Z</time>
      </trkpt>
      <trkpt lat="47.23272" lon="-1.59857">
        <ele>79.1</ele>
        <time>2012-08-21T11:15:41.000Z</time>
      </trkpt>
      <trkpt lat="47.23269" lon="-1.59848">
        <ele>80.6</ele>
        <time>2012-08-21T11:15:45.000Z</time>
      </trkpt>
      <trkpt lat="47.23264" lon="-1.59844">
        <ele>81</ele>
        <time>2012-08-21T11:15:46.000Z</time>
      </trkpt>
      <trkpt lat="47.23258" lon="-1.5984">
        <ele>81.2</ele>
        <time>2012-08-21T11:15:47.000Z</time>
      </trkpt>
      <trkpt lat="47.23252" lon="-1.59835">
        <ele>81.9</ele>
        <time>2012-08-21T11:15:48.000Z</time>
      </trkpt>
      <trkpt lat="47.23246" lon="-1.59828">
        <ele>81.9</ele>
        <time>2012-08-21T11:15:50.000Z</time>
      </trkpt>
      <trkpt lat="47.23241" lon="-1.5982">
        <ele>83</ele>
        <time>2012-08-21T11:15:53.000Z</time>
      </trkpt>
      <trkpt lat="47.23237" lon="-1.59814">
        <ele>82.9</ele>
        <time>2012-08-21T11:15:55.000Z</time>
      </trkpt>
      <trkpt lat="47.23236" lon="-1.59808">
        <ele>83.4</ele>
        <time>2012-08-21T11:15:56.000Z</time>
      </trkpt>
      <trkpt lat="47.23231" lon="-1.59802">
        <ele>81.9</ele>
        <time>2012-08-21T11:15:57.000Z</time>
      </trkpt>
      <trkpt lat="47.23227" lon="-1.59797">
        <ele>80.1</ele>
        <time>2012-08-21T11:15:59.000Z</time>
      </trkpt>
      <trkpt lat="47.23226" lon="-1.5979">
        <ele>80.3</ele>
        <time>2012-08-21T11:16:01.000Z</time>
      </trkpt>
      <trkpt lat="47.23222" lon="-1.59784">
        <ele>79.5</ele>
        <time>2012-08-21T11:16:02.000Z</time>
      </trkpt>
      <trkpt lat="47.23217" lon="-1.59776">
        <ele>78.8</ele>
        <time>2012-08-21T11:16:04.000Z</time>
      </trkpt>
      <trkpt lat="47.23211" lon="-1.59774">
        <ele>78.5</ele>
        <time>2012-08-21T11:16:06.000Z</time>
      </trkpt>
      <trkpt lat="47.23205" lon="-1.59771">
        <ele>77.7</ele>
        <time>2012-08-21T11:16:09.000Z</time>
      </trkpt>
      <trkpt lat="47.232" lon="-1.59774">
        <ele>78.2</ele>
        <time>2012-08-21T11:16:12.000Z</time>
      </trkpt>
      <trkpt lat="47.23193" lon="-1.5977">
        <ele>78.8</ele>
        <time>2012-08-21T11:16:14.000Z</time>
      </trkpt>
      <trkpt lat="47.23189" lon="-1.59765">
        <ele>79.3</ele>
        <time>2012-08-21T11:16:17.000Z</time>
      </trkpt>
      <trkpt lat="47.23185" lon="-1.59755">
        <ele>79.7</ele>
        <time>2012-08-21T11:16:21.000Z</time>
      </trkpt>
      <trkpt lat="47.23182" lon="-1.59749">
        <ele>79.7</ele>
        <time>2012-08-21T11:16:23.000Z</time>
      </trkpt>
      <trkpt lat="47.23177" lon="-1.59743">
        <ele>78.8</ele>
        <time>2012-08-21T11:16:26.000Z</time>
      </trkpt>
      <trkpt lat="47.23172" lon="-1.59734">
        <ele>79.7</ele>
        <time>2012-08-21T11:16:28.000Z</time>
      </trkpt>
      <trkpt lat="47.23168" lon="-1.59729">
        <ele>81</ele>
        <time>2012-08-21T11:16:30.000Z</time>
      </trkpt>
      <trkpt lat="47.23162" lon="-1.5972">
        <ele>80.7</ele>
        <time>2012-08-21T11:16:33.000Z</time>
      </trkpt>
      <trkpt lat="47.23157" lon="-1.59714">
        <ele>80.7</ele>
        <time>2012-08-21T11:16:35.000Z</time>
      </trkpt>
      <trkpt lat="47.23153" lon="-1.59706">
        <ele>80.9</ele>
        <time>2012-08-21T11:16:38.000Z</time>
      </trkpt>
      <trkpt lat="47.23148" lon="-1.59699">
        <ele>80.8</ele>
        <time>2012-08-21T11:16:40.000Z</time>
      </trkpt>
      <trkpt lat="47.23141" lon="-1.59688">
        <ele>80.4</ele>
        <time>2012-08-21T11:16:42.000Z</time>
      </trkpt>
      <trkpt lat="47.23138" lon="-1.59683">
        <ele>80.9</ele>
        <time>2012-08-21T11:16:44.000Z</time>
      </trkpt>
      <trkpt lat="47.23133" lon="-1.59677">
        <ele>81.1</ele>
        <time>2012-08-21T11:16:47.000Z</time>
      </trkpt>
      <trkpt lat="47.23129" lon="-1.59672">
        <ele>80.4</ele>
        <time>2012-08-21T11:16:48.000Z</time>
      </trkpt>
      <trkpt lat="47.23123" lon="-1.5966">
        <ele>79</ele>
        <time>2012-08-21T11:16:51.000Z</time>
      </trkpt>
      <trkpt lat="47.23118" lon="-1.59656">
        <ele>78.9</ele>
        <time>2012-08-21T11:16:53.000Z</time>
      </trkpt>
      <trkpt lat="47.23113" lon="-1.59653">
        <ele>78.7</ele>
        <time>2012-08-21T11:16:55.000Z</time>
      </trkpt>
      <trkpt lat="47.23107" lon="-1.59651">
        <ele>77.6</ele>
        <time>2012-08-21T11:16:57.000Z</time>
      </trkpt>
      <trkpt lat="47.231" lon="-1.59648">
        <ele>77.7</ele>
        <time>2012-08-21T11:16:59.000Z</time>
      </trkpt>
      <trkpt lat="47.23093" lon="-1.59648">
        <ele>78.4</ele>
        <time>2012-08-21T11:17:01.000Z</time>
      </trkpt>
      <trkpt lat="47.23085" lon="-1.59647">
        <ele>78.3</ele>
        <time>2012-08-21T11:17:04.000Z</time>
      </trkpt>
      <trkpt lat="47.23077" lon="-1.59646">
        <ele>78.2</ele>
        <time>2012-08-21T11:17:06.000Z</time>
      </trkpt>
      <trkpt lat="47.2307" lon="-1.59648">
        <ele>78.7</ele>
        <time>2012-08-21T11:17:08.000Z</time>
      </trkpt>
      <trkpt lat="47.23064" lon="-1.59655">
        <ele>77.1</ele>
        <time>2012-08-21T11:17:11.000Z</time>
      </trkpt>
      <trkpt lat="47.2306" lon="-1.5966">
        <ele>77.8</ele>
        <time>2012-08-21T11:17:13.000Z</time>
      </trkpt>
      <trkpt lat="47.23056" lon="-1.59665">
        <ele>76</ele>
        <time>2012-08-21T11:17:15.000Z</time>
      </trkpt>
      <trkpt lat="47.23055" lon="-1.59674">
        <ele>75.7</ele>
        <time>2012-08-21T11:17:17.000Z</time>
      </trkpt>
      <trkpt lat="47.23054" lon="-1.59683">
        <ele>73.7</ele>
        <time>2012-08-21T11:17:19.000Z</time>
      </trkpt>
      <trkpt lat="47.2305" lon="-1.59689">
        <ele>74.3</ele>
        <time>2012-08-21T11:17:22.000Z</time>
      </trkpt>
      <trkpt lat="47.23046" lon="-1.59696">
        <ele>74.1</ele>
        <time>2012-08-21T11:17:24.000Z</time>
      </trkpt>
      <trkpt lat="47.2304" lon="-1.597">
        <ele>74.6</ele>
        <time>2012-08-21T11:17:26.000Z</time>
      </trkpt>
      <trkpt lat="47.23034" lon="-1.59703">
        <ele>75.2</ele>
        <time>2012-08-21T11:17:28.000Z</time>
      </trkpt>
      <trkpt lat="47.23023" lon="-1.59702">
        <ele>74.9</ele>
        <time>2012-08-21T11:17:31.000Z</time>
      </trkpt>
      <trkpt lat="47.23018" lon="-1.59702">
        <ele>75.2</ele>
        <time>2012-08-21T11:17:33.000Z</time>
      </trkpt>
      <trkpt lat="47.23013" lon="-1.59698">
        <ele>73.9</ele>
        <time>2012-08-21T11:17:35.000Z</time>
      </trkpt>
      <trkpt lat="47.23006" lon="-1.59696">
        <ele>74.2</ele>
        <time>2012-08-21T11:17:38.000Z</time>
      </trkpt>
      <trkpt lat="47.22999" lon="-1.59696">
        <ele>74.8</ele>
        <time>2012-08-21T11:17:40.000Z</time>
      </trkpt>
      <trkpt lat="47.22992" lon="-1.59696">
        <ele>75.8</ele>
        <time>2012-08-21T11:17:42.000Z</time>
      </trkpt>
      <trkpt lat="47.22985" lon="-1.59701">
        <ele>74.7</ele>
        <time>2012-08-21T11:17:45.000Z</time>
      </trkpt>
      <trkpt lat="47.2298" lon="-1.597">
        <ele>74.6</ele>
        <time>2012-08-21T11:17:46.000Z</time>
      </trkpt>
      <trkpt lat="47.22974" lon="-1.597">
        <ele>74.8</ele>
        <time>2012-08-21T11:17:48.000Z</time>
      </trkpt>
      <trkpt lat="47.22968" lon="-1.597">
        <ele>75.1</ele>
        <time>2012-08-21T11:17:50.000Z</time>
      </trkpt>
      <trkpt lat="47.22964" lon="-1.59708">
        <ele>74.2</ele>
        <time>2012-08-21T11:17:52.000Z</time>
      </trkpt>
      <trkpt lat="47.22956" lon="-1.59706">
        <ele>74</ele>
        <time>2012-08-21T11:17:54.000Z</time>
      </trkpt>
      <trkpt lat="47.22949" lon="-1.5971">
        <ele>73.7</ele>
        <time>2012-08-21T11:17:56.000Z</time>
      </trkpt>
      <trkpt lat="47.22946" lon="-1.59714">
        <ele>73.3</ele>
        <time>2012-08-21T11:17:58.000Z</time>
      </trkpt>
      <trkpt lat="47.22941" lon="-1.59715">
        <ele>73.4</ele>
        <time>2012-08-21T11:18:00.000Z</time>
      </trkpt>
      <trkpt lat="47.22935" lon="-1.59721">
        <ele>73.8</ele>
        <time>2012-08-21T11:18:02.000Z</time>
      </trkpt>
      <trkpt lat="47.22931" lon="-1.59727">
        <ele>73.9</ele>
        <time>2012-08-21T11:18:04.000Z</time>
      </trkpt>
      <trkpt lat="47.22932" lon="-1.59735">
        <ele>73.2</ele>
        <time>2012-08-21T11:18:05.000Z</time>
      </trkpt>
      <trkpt lat="47.22932" lon="-1.59743">
        <ele>72.7</ele>
        <time>2012-08-21T11:18:06.000Z</time>
      </trkpt>
      <trkpt lat="47.22934" lon="-1.59754">
        <ele>71</ele>
        <time>2012-08-21T11:18:08.000Z</time>
      </trkpt>
      <trkpt lat="47.22937" lon="-1.59765">
        <ele>70.9</ele>
        <time>2012-08-21T11:18:10.000Z</time>
      </trkpt>
      <trkpt lat="47.22936" lon="-1.59772">
        <ele>69.9</ele>
        <time>2012-08-21T11:18:12.000Z</time>
      </trkpt>
      <trkpt lat="47.22938" lon="-1.59781">
        <ele>71.2</ele>
        <time>2012-08-21T11:18:15.000Z</time>
      </trkpt>
      <trkpt lat="47.2294" lon="-1.59791">
        <ele>70</ele>
        <time>2012-08-21T11:18:18.000Z</time>
      </trkpt>
      <trkpt lat="47.22944" lon="-1.59795">
        <ele>70.4</ele>
        <time>2012-08-21T11:18:19.000Z</time>
      </trkpt>
      <trkpt lat="47.22949" lon="-1.59796">
        <ele>71.4</ele>
        <time>2012-08-21T11:18:21.000Z</time>
      </trkpt>
      <trkpt lat="47.22955" lon="-1.59798">
        <ele>70.8</ele>
        <time>2012-08-21T11:18:22.000Z</time>
      </trkpt>
      <trkpt lat="47.22962" lon="-1.598">
        <ele>70.2</ele>
        <time>2012-08-21T11:18:25.000Z</time>
      </trkpt>
      <trkpt lat="47.22968" lon="-1.598">
        <ele>69.6</ele>
        <time>2012-08-21T11:18:27.000Z</time>
      </trkpt>
      <trkpt lat="47.22972" lon="-1.59803">
        <ele>69.9</ele>
        <time>2012-08-21T11:18:28.000Z</time>
      </trkpt>
      <trkpt lat="47.22979" lon="-1.59803">
        <ele>69.5</ele>
        <time>2012-08-21T11:18:30.000Z</time>
      </trkpt>
      <trkpt lat="47.22986" lon="-1.59803">
        <ele>70.1</ele>
        <time>2012-08-21T11:18:33.000Z</time>
      </trkpt>
      <trkpt lat="47.2299" lon="-1.598">
        <ele>70.6</ele>
        <time>2012-08-21T11:18:35.000Z</time>
      </trkpt>
      <trkpt lat="47.22996" lon="-1.59802">
        <ele>70.4</ele>
        <time>2012-08-21T11:18:36.000Z</time>
      </trkpt>
      <trkpt lat="47.23002" lon="-1.59799">
        <ele>70.2</ele>
        <time>2012-08-21T11:18:38.000Z</time>
      </trkpt>
      <trkpt lat="47.2301" lon="-1.59798">
        <ele>69.7</ele>
        <time>2012-08-21T11:18:40.000Z</time>
      </trkpt>
      <trkpt lat="47.23017" lon="-1.59797">
        <ele>69</ele>
        <time>2012-08-21T11:18:42.000Z</time>
      </trkpt>
      <trkpt lat="47.23025" lon="-1.59795">
        <ele>69</ele>
        <time>2012-08-21T11:18:44.000Z</time>
      </trkpt>
      <trkpt lat="47.23032" lon="-1.59796">
        <ele>69.3</ele>
        <time>2012-08-21T11:18:46.000Z</time>
      </trkpt>
      <trkpt lat="47.23036" lon="-1.59789">
        <ele>69.8</ele>
        <time>2012-08-21T11:18:49.000Z</time>
      </trkpt>
      <trkpt lat="47.23042" lon="-1.59788">
        <ele>69.4</ele>
        <time>2012-08-21T11:18:51.000Z</time>
      </trkpt>
      <trkpt lat="47.23048" lon="-1.59789">
        <ele>70.2</ele>
        <time>2012-08-21T11:18:52.000Z</time>
      </trkpt>
      <trkpt lat="47.23053" lon="-1.59786">
        <ele>69.8</ele>
        <time>2012-08-21T11:18:54.000Z</time>
      </trkpt>
      <trkpt lat="47.23058" lon="-1.59781">
        <ele>69.7</ele>
        <time>2012-08-21T11:18:57.000Z</time>
      </trkpt>
      <trkpt lat="47.23062" lon="-1.59777">
        <ele>69.3</ele>
        <time>2012-08-21T11:18:59.000Z</time>
      </trkpt>
      <trkpt lat="47.23066" lon="-1.59771">
        <ele>69.4</ele>
        <time>2012-08-21T11:19:01.000Z</time>
      </trkpt>
      <trkpt lat="47.23071" lon="-1.59762">
        <ele>68.8</ele>
        <time>2012-08-21T11:19:03.000Z</time>
      </trkpt>
      <trkpt lat="47.23074" lon="-1.59756">
        <ele>68.9</ele>
        <time>2012-08-21T11:19:04.000Z</time>
      </trkpt>
      <trkpt lat="47.23078" lon="-1.59746">
        <ele>69.2</ele>
        <time>2012-08-21T11:19:06.000Z</time>
      </trkpt>
      <trkpt lat="47.23084" lon="-1.59741">
        <ele>68.9</ele>
        <time>2012-08-21T11:19:08.000Z</time>
      </trkpt>
      <trkpt lat="47.23088" lon="-1.59735">
        <ele>68.3</ele>
        <time>2012-08-21T11:19:10.000Z</time>
      </trkpt>
      <trkpt lat="47.23092" lon="-1.59733">
        <ele>67.6</ele>
        <time>2012-08-21T11:19:12.000Z</time>
      </trkpt>
      <trkpt lat="47.23097" lon="-1.59729">
        <ele>69.2</ele>
        <time>2012-08-21T11:19:14.000Z</time>
      </trkpt>
      <trkpt lat="47.23101" lon="-1.59732">
        <ele>70.2</ele>
        <time>2012-08-21T11:19:17.000Z</time>
      </trkpt>
      <trkpt lat="47.23105" lon="-1.59735">
        <ele>69</ele>
        <time>2012-08-21T11:19:20.000Z</time>
      </trkpt>
      <trkpt lat="47.23113" lon="-1.59744">
        <ele>67</ele>
        <time>2012-08-21T11:19:24.000Z</time>
      </trkpt>
      <trkpt lat="47.23116" lon="-1.59751">
        <ele>67.1</ele>
        <time>2012-08-21T11:19:28.000Z</time>
      </trkpt>
      <trkpt lat="47.2312" lon="-1.59756">
        <ele>66.6</ele>
        <time>2012-08-21T11:19:30.000Z</time>
      </trkpt>
      <trkpt lat="47.23125" lon="-1.59761">
        <ele>66.7</ele>
        <time>2012-08-21T11:19:32.000Z</time>
      </trkpt>
      <trkpt lat="47.23128" lon="-1.59769">
        <ele>66.6</ele>
        <time>2012-08-21T11:19:34.000Z</time>
      </trkpt>
      <trkpt lat="47.23131" lon="-1.59774">
        <ele>66.5</ele>
        <time>2012-08-21T11:19:36.000Z</time>
      </trkpt>
      <trkpt lat="47.23135" lon="-1.59778">
        <ele>66.4</ele>
        <time>2012-08-21T11:19:37.000Z</time>
      </trkpt>
      <trkpt lat="47.2314" lon="-1.59784">
        <ele>66.3</ele>
        <time>2012-08-21T11:19:40.000Z</time>
      </trkpt>
      <trkpt lat="47.23144" lon="-1.59788">
        <ele>66.1</ele>
        <time>2012-08-21T11:19:41.000Z</time>
      </trkpt>
      <trkpt lat="47.23149" lon="-1.59792">
        <ele>66</ele>
        <time>2012-08-21T11:19:43.000Z</time>
      </trkpt>
      <trkpt lat="47.2316" lon="-1.59801">
        <ele>66.4</ele>
        <time>2012-08-21T11:19:45.000Z</time>
      </trkpt>
      <trkpt lat="47.23164" lon="-1.59803">
        <ele>67.3</ele>
        <time>2012-08-21T11:19:47.000Z</time>
      </trkpt>
      <trkpt lat="47.23169" lon="-1.59806">
        <ele>67.5</ele>
        <time>2012-08-21T11:19:48.000Z</time>
      </trkpt>
      <trkpt lat="47.23174" lon="-1.59806">
        <ele>67.3</ele>
        <time>2012-08-21T11:19:50.000Z</time>
      </trkpt>
      <trkpt lat="47.23179" lon="-1.59807">
        <ele>68.1</ele>
        <time>2012-08-21T11:19:52.000Z</time>
      </trkpt>
      <trkpt lat="47.23184" lon="-1.59812">
        <ele>68.8</ele>
        <time>2012-08-21T11:19:55.000Z</time>
      </trkpt>
      <trkpt lat="47.23189" lon="-1.59817">
        <ele>68.2</ele>
        <time>2012-08-21T11:19:58.000Z</time>
      </trkpt>
      <trkpt lat="47.23193" lon="-1.59821">
        <ele>68.6</ele>
        <time>2012-08-21T11:19:59.000Z</time>
      </trkpt>
      <trkpt lat="47.23198" lon="-1.59826">
        <ele>68.6</ele>
        <time>2012-08-21T11:20:01.000Z</time>
      </trkpt>
      <trkpt lat="47.23201" lon="-1.59834">
        <ele>68.1</ele>
        <time>2012-08-21T11:20:03.000Z</time>
      </trkpt>
      <trkpt lat="47.232" lon="-1.59841">
        <ele>68.8</ele>
        <time>2012-08-21T11:20:06.000Z</time>
      </trkpt>
      <trkpt lat="47.23204" lon="-1.59849">
        <ele>69.2</ele>
        <time>2012-08-21T11:20:08.000Z</time>
      </trkpt>
      <trkpt lat="47.23209" lon="-1.59857">
        <ele>69.4</ele>
        <time>2012-08-21T11:20:10.000Z</time>
      </trkpt>
      <trkpt lat="47.23212" lon="-1.59864">
        <ele>68.7</ele>
        <time>2012-08-21T11:20:12.000Z</time>
      </trkpt>
      <trkpt lat="47.23217" lon="-1.59869">
        <ele>68.5</ele>
        <time>2012-08-21T11:20:15.000Z</time>
      </trkpt>
      <trkpt lat="47.23224" lon="-1.59876">
        <ele>69.6</ele>
        <time>2012-08-21T11:20:17.000Z</time>
      </trkpt>
      <trkpt lat="47.23228" lon="-1.5988">
        <ele>69.6</ele>
        <time>2012-08-21T11:20:19.000Z</time>
      </trkpt>
      <trkpt lat="47.23232" lon="-1.59885">
        <ele>71.6</ele>
        <time>2012-08-21T11:20:21.000Z</time>
      </trkpt>
      <trkpt lat="47.23239" lon="-1.59891">
        <ele>71.3</ele>
        <time>2012-08-21T11:20:23.000Z</time>
      </trkpt>
      <trkpt lat="47.23247" lon="-1.599">
        <ele>70.9</ele>
        <time>2012-08-21T11:20:26.000Z</time>
      </trkpt>
      <trkpt lat="47.23251" lon="-1.59907">
        <ele>70.4</ele>
        <time>2012-08-21T11:20:29.000Z</time>
      </trkpt>
      <trkpt lat="47.23257" lon="-1.59913">
        <ele>70</ele>
        <time>2012-08-21T11:20:31.000Z</time>
      </trkpt>
      <trkpt lat="47.23262" lon="-1.59916">
        <ele>69.3</ele>
        <time>2012-08-21T11:20:35.000Z</time>
      </trkpt>
      <trkpt lat="47.23266" lon="-1.5992">
        <ele>69.8</ele>
        <time>2012-08-21T11:20:36.000Z</time>
      </trkpt>
      <trkpt lat="47.2327" lon="-1.59924">
        <ele>69.7</ele>
        <time>2012-08-21T11:20:37.000Z</time>
      </trkpt>
      <trkpt lat="47.23277" lon="-1.59929">
        <ele>68.3</ele>
        <time>2012-08-21T11:20:40.000Z</time>
      </trkpt>
      <trkpt lat="47.2328" lon="-1.59933">
        <ele>68.3</ele>
        <time>2012-08-21T11:20:41.000Z</time>
      </trkpt>
      <trkpt lat="47.23288" lon="-1.59936">
        <ele>67.5</ele>
        <time>2012-08-21T11:20:43.000Z</time>
      </trkpt>
      <trkpt lat="47.23292" lon="-1.59939">
        <ele>68.2</ele>
        <time>2012-08-21T11:20:45.000Z</time>
      </trkpt>
      <trkpt lat="47.23297" lon="-1.59946">
        <ele>68.7</ele>
        <time>2012-08-21T11:20:47.000Z</time>
      </trkpt>
      <trkpt lat="47.23302" lon="-1.59953">
        <ele>69</ele>
        <time>2012-08-21T11:20:49.000Z</time>
      </trkpt>
      <trkpt lat="47.23305" lon="-1.5996">
        <ele>69.3</ele>
        <time>2012-08-21T11:20:52.000Z</time>
      </trkpt>
      <trkpt lat="47.23307" lon="-1.59968">
        <ele>69.6</ele>
        <time>2012-08-21T11:20:54.000Z</time>
      </trkpt>
      <trkpt lat="47.23308" lon="-1.59977">
        <ele>68.9</ele>
        <time>2012-08-21T11:20:56.000Z</time>
      </trkpt>
      <trkpt lat="47.23306" lon="-1.59987">
        <ele>67.4</ele>
        <time>2012-08-21T11:20:59.000Z</time>
      </trkpt>
      <trkpt lat="47.23307" lon="-1.59995">
        <ele>65.8</ele>
        <time>2012-08-21T11:21:01.000Z</time>
      </trkpt>
      <trkpt lat="47.23309" lon="-1.60007">
        <ele>63.9</ele>
        <time>2012-08-21T11:21:03.000Z</time>
      </trkpt>
      <trkpt lat="47.23309" lon="-1.60014">
        <ele>64.1</ele>
        <time>2012-08-21T11:21:05.000Z</time>
      </trkpt>
      <trkpt lat="47.2331" lon="-1.60023">
        <ele>64</ele>
        <time>2012-08-21T11:21:07.000Z</time>
      </trkpt>
      <trkpt lat="47.23307" lon="-1.60029">
        <ele>63.8</ele>
        <time>2012-08-21T11:21:09.000Z</time>
      </trkpt>
      <trkpt lat="47.23306" lon="-1.60035">
        <ele>63.1</ele>
        <time>2012-08-21T11:21:11.000Z</time>
      </trkpt>
      <trkpt lat="47.23308" lon="-1.60045">
        <ele>63.4</ele>
        <time>2012-08-21T11:21:14.000Z</time>
      </trkpt>
      <trkpt lat="47.23306" lon="-1.60054">
        <ele>63.4</ele>
        <time>2012-08-21T11:21:17.000Z</time>
      </trkpt>
      <trkpt lat="47.23305" lon="-1.6006">
        <ele>63.2</ele>
        <time>2012-08-21T11:21:18.000Z</time>
      </trkpt>
      <trkpt lat="47.23303" lon="-1.60069">
        <ele>62.7</ele>
        <time>2012-08-21T11:21:21.000Z</time>
      </trkpt>
      <trkpt lat="47.23304" lon="-1.60079">
        <ele>63.1</ele>
        <time>2012-08-21T11:21:23.000Z</time>
      </trkpt>
      <trkpt lat="47.23306" lon="-1.60088">
        <ele>64.8</ele>
        <time>2012-08-21T11:21:25.000Z</time>
      </trkpt>
      <trkpt lat="47.23305" lon="-1.60095">
        <ele>65.3</ele>
        <time>2012-08-21T11:21:27.000Z</time>
      </trkpt>
      <trkpt lat="47.23306" lon="-1.60102">
        <ele>65.3</ele>
        <time>2012-08-21T11:21:29.000Z</time>
      </trkpt>
      <trkpt lat="47.23307" lon="-1.6011">
        <ele>65</ele>
        <time>2012-08-21T11:21:31.000Z</time>
      </trkpt>
      <trkpt lat="47.2331" lon="-1.60119">
        <ele>64.5</ele>
        <time>2012-08-21T11:21:33.000Z</time>
      </trkpt>
      <trkpt lat="47.23314" lon="-1.60128">
        <ele>64.7</ele>
        <time>2012-08-21T11:21:36.000Z</time>
      </trkpt>
      <trkpt lat="47.23317" lon="-1.60133">
        <ele>65.5</ele>
        <time>2012-08-21T11:21:37.000Z</time>
      </trkpt>
      <trkpt lat="47.23322" lon="-1.6014">
        <ele>65.4</ele>
        <time>2012-08-21T11:21:39.000Z</time>
      </trkpt>
      <trkpt lat="47.23325" lon="-1.60144">
        <ele>65.4</ele>
        <time>2012-08-21T11:21:41.000Z</time>
      </trkpt>
      <trkpt lat="47.2333" lon="-1.60149">
        <ele>65.7</ele>
        <time>2012-08-21T11:21:42.000Z</time>
      </trkpt>
      <trkpt lat="47.23335" lon="-1.60156">
        <ele>65.9</ele>
        <time>2012-08-21T11:21:44.000Z</time>
      </trkpt>
      <trkpt lat="47.2334" lon="-1.60161">
        <ele>65.3</ele>
        <time>2012-08-21T11:21:45.000Z</time>
      </trkpt>
      <trkpt lat="47.23343" lon="-1.60168">
        <ele>66</ele>
        <time>2012-08-21T11:21:47.000Z</time>
      </trkpt>
      <trkpt lat="47.23345" lon="-1.60174">
        <ele>67.3</ele>
        <time>2012-08-21T11:21:49.000Z</time>
      </trkpt>
      <trkpt lat="47.23348" lon="-1.60181">
        <ele>67.7</ele>
        <time>2012-08-21T11:21:51.000Z</time>
      </trkpt>
      <trkpt lat="47.23352" lon="-1.60188">
        <ele>68.6</ele>
        <time>2012-08-21T11:21:53.000Z</time>
      </trkpt>
      <trkpt lat="47.23355" lon="-1.60194">
        <ele>68.2</ele>
        <time>2012-08-21T11:21:55.000Z</time>
      </trkpt>
      <trkpt lat="47.2336" lon="-1.60198">
        <ele>68.5</ele>
        <time>2012-08-21T11:21:57.000Z</time>
      </trkpt>
      <trkpt lat="47.23361" lon="-1.60204">
        <ele>69</ele>
        <time>2012-08-21T11:22:00.000Z</time>
      </trkpt>
      <trkpt lat="47.23365" lon="-1.6021">
        <ele>68.3</ele>
        <time>2012-08-21T11:22:02.000Z</time>
      </trkpt>
      <trkpt lat="47.23368" lon="-1.6022">
        <ele>67.9</ele>
        <time>2012-08-21T11:22:04.000Z</time>
      </trkpt>
      <trkpt lat="47.23374" lon="-1.60224">
        <ele>67.6</ele>
        <time>2012-08-21T11:22:06.000Z</time>
      </trkpt>
      <trkpt lat="47.2338" lon="-1.6023">
        <ele>67.5</ele>
        <time>2012-08-21T11:22:09.000Z</time>
      </trkpt>
      <trkpt lat="47.23385" lon="-1.60233">
        <ele>68.5</ele>
        <time>2012-08-21T11:22:11.000Z</time>
      </trkpt>
      <trkpt lat="47.23389" lon="-1.60238">
        <ele>69</ele>
        <time>2012-08-21T11:22:14.000Z</time>
      </trkpt>
      <trkpt lat="47.23392" lon="-1.60246">
        <ele>69.5</ele>
        <time>2012-08-21T11:22:16.000Z</time>
      </trkpt>
      <trkpt lat="47.23396" lon="-1.6025">
        <ele>69.8</ele>
        <time>2012-08-21T11:22:17.000Z</time>
      </trkpt>
      <trkpt lat="47.234" lon="-1.60253">
        <ele>69.6</ele>
        <time>2012-08-21T11:22:18.000Z</time>
      </trkpt>
      <trkpt lat="47.23404" lon="-1.6026">
        <ele>69.4</ele>
        <time>2012-08-21T11:22:21.000Z</time>
      </trkpt>
      <trkpt lat="47.23407" lon="-1.60266">
        <ele>69</ele>
        <time>2012-08-21T11:22:23.000Z</time>
      </trkpt>
      <trkpt lat="47.2341" lon="-1.60271">
        <ele>68.2</ele>
        <time>2012-08-21T11:22:25.000Z</time>
      </trkpt>
      <trkpt lat="47.23416" lon="-1.60279">
        <ele>67.8</ele>
        <time>2012-08-21T11:22:28.000Z</time>
      </trkpt>
      <trkpt lat="47.23425" lon="-1.60286">
        <ele>68.6</ele>
        <time>2012-08-21T11:22:30.000Z</time>
      </trkpt>
      <trkpt lat="47.23433" lon="-1.60294">
        <ele>68.6</ele>
        <time>2012-08-21T11:22:33.000Z</time>
      </trkpt>
      <trkpt lat="47.23438" lon="-1.60301">
        <ele>69.2</ele>
        <time>2012-08-21T11:22:35.000Z</time>
      </trkpt>
      <trkpt lat="47.23443" lon="-1.6031">
        <ele>71.1</ele>
        <time>2012-08-21T11:22:40.000Z</time>
      </trkpt>
      <trkpt lat="47.23447" lon="-1.60312">
        <ele>71.2</ele>
        <time>2012-08-21T11:22:43.000Z</time>
      </trkpt>
      <trkpt lat="47.23452" lon="-1.60318">
        <ele>71.4</ele>
        <time>2012-08-21T11:22:46.000Z</time>
      </trkpt>
      <trkpt lat="47.23456" lon="-1.60326">
        <ele>72.4</ele>
        <time>2012-08-21T11:22:49.000Z</time>
      </trkpt>
      <trkpt lat="47.2346" lon="-1.6033">
        <ele>72.5</ele>
        <time>2012-08-21T11:22:50.000Z</time>
      </trkpt>
      <trkpt lat="47.23463" lon="-1.60334">
        <ele>71.2</ele>
        <time>2012-08-21T11:22:52.000Z</time>
      </trkpt>
      <trkpt lat="47.23468" lon="-1.60337">
        <ele>70.9</ele>
        <time>2012-08-21T11:22:53.000Z</time>
      </trkpt>
      <trkpt lat="47.23474" lon="-1.60345">
        <ele>70.3</ele>
        <time>2012-08-21T11:22:55.000Z</time>
      </trkpt>
      <trkpt lat="47.2348" lon="-1.6035">
        <ele>69.9</ele>
        <time>2012-08-21T11:22:57.000Z</time>
      </trkpt>
      <trkpt lat="47.23483" lon="-1.60356">
        <ele>69.6</ele>
        <time>2012-08-21T11:22:59.000Z</time>
      </trkpt>
      <trkpt lat="47.23487" lon="-1.60362">
        <ele>70.3</ele>
        <time>2012-08-21T11:23:01.000Z</time>
      </trkpt>
      <trkpt lat="47.23488" lon="-1.6037">
        <ele>70.6</ele>
        <time>2012-08-21T11:23:04.000Z</time>
      </trkpt>
      <trkpt lat="47.2349" lon="-1.60379">
        <ele>69.5</ele>
        <time>2012-08-21T11:23:07.000Z</time>
      </trkpt>
      <trkpt lat="47.23488" lon="-1.60389">
        <ele>70.2</ele>
        <time>2012-08-21T11:23:09.000Z</time>
      </trkpt>
      <trkpt lat="47.23489" lon="-1.60396">
        <ele>70.4</ele>
        <time>2012-08-21T11:23:11.000Z</time>
      </trkpt>
      <trkpt lat="47.23491" lon="-1.60404">
        <ele>69.7</ele>
        <time>2012-08-21T11:23:13.000Z</time>
      </trkpt>
      <trkpt lat="47.23493" lon="-1.60412">
        <ele>69.6</ele>
        <time>2012-08-21T11:23:16.000Z</time>
      </trkpt>
      <trkpt lat="47.23496" lon="-1.60419">
        <ele>69.9</ele>
        <time>2012-08-21T11:23:18.000Z</time>
      </trkpt>
      <trkpt lat="47.23498" lon="-1.60427">
        <ele>70.6</ele>
        <time>2012-08-21T11:23:20.000Z</time>
      </trkpt>
      <trkpt lat="47.23498" lon="-1.60434">
        <ele>71.9</ele>
        <time>2012-08-21T11:23:21.000Z</time>
      </trkpt>
      <trkpt lat="47.23502" lon="-1.6044">
        <ele>71.2</ele>
        <time>2012-08-21T11:23:22.000Z</time>
      </trkpt>
      <trkpt lat="47.23506" lon="-1.60448">
        <ele>70.7</ele>
        <time>2012-08-21T11:23:24.000Z</time>
      </trkpt>
      <trkpt lat="47.23504" lon="-1.60454">
        <ele>70.3</ele>
        <time>2012-08-21T11:23:26.000Z</time>
      </trkpt>
      <trkpt lat="47.23504" lon="-1.60464">
        <ele>69.6</ele>
        <time>2012-08-21T11:23:29.000Z</time>
      </trkpt>
      <trkpt lat="47.23508" lon="-1.60475">
        <ele>70.7</ele>
        <time>2012-08-21T11:23:31.000Z</time>
      </trkpt>
      <trkpt lat="47.23508" lon="-1.60482">
        <ele>70.5</ele>
        <time>2012-08-21T11:23:32.000Z</time>
      </trkpt>
      <trkpt lat="47.23511" lon="-1.60488">
        <ele>70.8</ele>
        <time>2012-08-21T11:23:33.000Z</time>
      </trkpt>
      <trkpt lat="47.23512" lon="-1.60496">
        <ele>71.4</ele>
        <time>2012-08-21T11:23:35.000Z</time>
      </trkpt>
      <trkpt lat="47.23511" lon="-1.60504">
        <ele>70.3</ele>
        <time>2012-08-21T11:23:37.000Z</time>
      </trkpt>
      <trkpt lat="47.23511" lon="-1.60515">
        <ele>68.7</ele>
        <time>2012-08-21T11:23:39.000Z</time>
      </trkpt>
      <trkpt lat="47.2351" lon="-1.60522">
        <ele>69.6</ele>
        <time>2012-08-21T11:23:42.000Z</time>
      </trkpt>
      <trkpt lat="47.23515" lon="-1.60527">
        <ele>68.3</ele>
        <time>2012-08-21T11:23:47.000Z</time>
      </trkpt>
      <trkpt lat="47.23509" lon="-1.60518">
        <ele>68</ele>
        <time>2012-08-21T11:23:50.000Z</time>
      </trkpt>
      <trkpt lat="47.23514" lon="-1.60515">
        <ele>67.1</ele>
        <time>2012-08-21T11:24:11.000Z</time>
      </trkpt>
      <trkpt lat="47.23514" lon="-1.60523">
        <ele>66.1</ele>
        <time>2012-08-21T11:24:16.000Z</time>
      </trkpt>
      <trkpt lat="47.23508" lon="-1.60525">
        <ele>67</ele>
        <time>2012-08-21T11:24:17.000Z</time>
      </trkpt>
      <trkpt lat="47.23506" lon="-1.60531">
        <ele>66.3</ele>
        <time>2012-08-21T11:24:19.000Z</time>
      </trkpt>
      <trkpt lat="47.23503" lon="-1.60538">
        <ele>66.6</ele>
        <time>2012-08-21T11:24:22.000Z</time>
      </trkpt>
      <trkpt lat="47.23503" lon="-1.60546">
        <ele>67.2</ele>
        <time>2012-08-21T11:24:24.000Z</time>
      </trkpt>
      <trkpt lat="47.23507" lon="-1.60556">
        <ele>67.5</ele>
        <time>2012-08-21T11:24:26.000Z</time>
      </trkpt>
      <trkpt lat="47.23509" lon="-1.60565">
        <ele>67.4</ele>
        <time>2012-08-21T11:24:28.000Z</time>
      </trkpt>
      <trkpt lat="47.2351" lon="-1.60572">
        <ele>67.5</ele>
        <time>2012-08-21T11:24:30.000Z</time>
      </trkpt>
      <trkpt lat="47.23509" lon="-1.6058">
        <ele>67.1</ele>
        <time>2012-08-21T11:24:32.000Z</time>
      </trkpt>
      <trkpt lat="47.2351" lon="-1.60592">
        <ele>66.6</ele>
        <time>2012-08-21T11:24:34.000Z</time>
      </trkpt>
      <trkpt lat="47.2351" lon="-1.606">
        <ele>66.1</ele>
        <time>2012-08-21T11:24:36.000Z</time>
      </trkpt>
      <trkpt lat="47.23507" lon="-1.60605">
        <ele>66.7</ele>
        <time>2012-08-21T11:24:39.000Z</time>
      </trkpt>
      <trkpt lat="47.23509" lon="-1.60611">
        <ele>66.2</ele>
        <time>2012-08-21T11:24:40.000Z</time>
      </trkpt>
      <trkpt lat="47.23512" lon="-1.6062">
        <ele>66.9</ele>
        <time>2012-08-21T11:24:41.000Z</time>
      </trkpt>
      <trkpt lat="47.2351" lon="-1.60626">
        <ele>67.1</ele>
        <time>2012-08-21T11:24:44.000Z</time>
      </trkpt>
      <trkpt lat="47.23513" lon="-1.60636">
        <ele>68.5</ele>
        <time>2012-08-21T11:24:47.000Z</time>
      </trkpt>
      <trkpt lat="47.23513" lon="-1.60644">
        <ele>68.3</ele>
        <time>2012-08-21T11:24:50.000Z</time>
      </trkpt>
      <trkpt lat="47.23516" lon="-1.60652">
        <ele>67.5</ele>
        <time>2012-08-21T11:24:53.000Z</time>
      </trkpt>
      <trkpt lat="47.23519" lon="-1.6066">
        <ele>67.2</ele>
        <time>2012-08-21T11:24:55.000Z</time>
      </trkpt>
      <trkpt lat="47.23524" lon="-1.60669">
        <ele>67.6</ele>
        <time>2012-08-21T11:24:57.000Z</time>
      </trkpt>
      <trkpt lat="47.23525" lon="-1.60677">
        <ele>67.8</ele>
        <time>2012-08-21T11:25:00.000Z</time>
      </trkpt>
      <trkpt lat="47.23528" lon="-1.60683">
        <ele>67.6</ele>
        <time>2012-08-21T11:25:01.000Z</time>
      </trkpt>
      <trkpt lat="47.23531" lon="-1.60694">
        <ele>67.4</ele>
        <time>2012-08-21T11:25:03.000Z</time>
      </trkpt>
      <trkpt lat="47.23534" lon="-1.607">
        <ele>68.4</ele>
        <time>2012-08-21T11:25:05.000Z</time>
      </trkpt>
      <trkpt lat="47.23536" lon="-1.60708">
        <ele>69.3</ele>
        <time>2012-08-21T11:25:08.000Z</time>
      </trkpt>
      <trkpt lat="47.2354" lon="-1.60713">
        <ele>69.7</ele>
        <time>2012-08-21T11:25:10.000Z</time>
      </trkpt>
      <trkpt lat="47.2354" lon="-1.60719">
        <ele>70.6</ele>
        <time>2012-08-21T11:25:12.000Z</time>
      </trkpt>
      <trkpt lat="47.23542" lon="-1.60725">
        <ele>70.8</ele>
        <time>2012-08-21T11:25:14.000Z</time>
      </trkpt>
      <trkpt lat="47.23543" lon="-1.60732">
        <ele>71.2</ele>
        <time>2012-08-21T11:25:16.000Z</time>
      </trkpt>
      <trkpt lat="47.23547" lon="-1.60741">
        <ele>71.6</ele>
        <time>2012-08-21T11:25:17.000Z</time>
      </trkpt>
      <trkpt lat="47.23552" lon="-1.60749">
        <ele>70.7</ele>
        <time>2012-08-21T11:25:18.000Z</time>
      </trkpt>
      <trkpt lat="47.23554" lon="-1.60755">
        <ele>71.5</ele>
        <time>2012-08-21T11:25:20.000Z</time>
      </trkpt>
      <trkpt lat="47.23556" lon="-1.60761">
        <ele>72.4</ele>
        <time>2012-08-21T11:25:24.000Z</time>
      </trkpt>
      <trkpt lat="47.2356" lon="-1.60768">
        <ele>72.2</ele>
        <time>2012-08-21T11:25:26.000Z</time>
      </trkpt>
      <trkpt lat="47.23563" lon="-1.60777">
        <ele>71.5</ele>
        <time>2012-08-21T11:25:28.000Z</time>
      </trkpt>
      <trkpt lat="47.23568" lon="-1.60784">
        <ele>71.6</ele>
        <time>2012-08-21T11:25:31.000Z</time>
      </trkpt>
      <trkpt lat="47.23573" lon="-1.60788">
        <ele>73.2</ele>
        <time>2012-08-21T11:25:33.000Z</time>
      </trkpt>
      <trkpt lat="47.23579" lon="-1.60794">
        <ele>73.7</ele>
        <time>2012-08-21T11:25:35.000Z</time>
      </trkpt>
      <trkpt lat="47.23588" lon="-1.60802">
        <ele>74.1</ele>
        <time>2012-08-21T11:25:37.000Z</time>
      </trkpt>
      <trkpt lat="47.23593" lon="-1.60804">
        <ele>74.6</ele>
        <time>2012-08-21T11:25:40.000Z</time>
      </trkpt>
      <trkpt lat="47.23597" lon="-1.60809">
        <ele>74.4</ele>
        <time>2012-08-21T11:25:42.000Z</time>
      </trkpt>
      <trkpt lat="47.23603" lon="-1.60812">
        <ele>74.8</ele>
        <time>2012-08-21T11:25:44.000Z</time>
      </trkpt>
      <trkpt lat="47.2361" lon="-1.60816">
        <ele>74.6</ele>
        <time>2012-08-21T11:25:47.000Z</time>
      </trkpt>
      <trkpt lat="47.23614" lon="-1.60822">
        <ele>74.1</ele>
        <time>2012-08-21T11:25:49.000Z</time>
      </trkpt>
      <trkpt lat="47.23616" lon="-1.60828">
        <ele>73.7</ele>
        <time>2012-08-21T11:25:51.000Z</time>
      </trkpt>
      <trkpt lat="47.23616" lon="-1.60835">
        <ele>74.5</ele>
        <time>2012-08-21T11:25:53.000Z</time>
      </trkpt>
      <trkpt lat="47.23614" lon="-1.60843">
        <ele>74.1</ele>
        <time>2012-08-21T11:25:56.000Z</time>
      </trkpt>
      <trkpt lat="47.23616" lon="-1.60851">
        <ele>74.1</ele>
        <time>2012-08-21T11:25:58.000Z</time>
      </trkpt>
      <trkpt lat="47.23616" lon="-1.60857">
        <ele>74</ele>
        <time>2012-08-21T11:26:00.000Z</time>
      </trkpt>
      <trkpt lat="47.23614" lon="-1.60866">
        <ele>73.3</ele>
        <time>2012-08-21T11:26:03.000Z</time>
      </trkpt>
      <trkpt lat="47.23616" lon="-1.60874">
        <ele>73</ele>
        <time>2012-08-21T11:26:05.000Z</time>
      </trkpt>
      <trkpt lat="47.23618" lon="-1.60881">
        <ele>72.8</ele>
        <time>2012-08-21T11:26:07.000Z</time>
      </trkpt>
      <trkpt lat="47.23617" lon="-1.6089">
        <ele>73.2</ele>
        <time>2012-08-21T11:26:09.000Z</time>
      </trkpt>
      <trkpt lat="47.23619" lon="-1.60897">
        <ele>73.1</ele>
        <time>2012-08-21T11:26:10.000Z</time>
      </trkpt>
      <trkpt lat="47.23621" lon="-1.60905">
        <ele>72.2</ele>
        <time>2012-08-21T11:26:11.000Z</time>
      </trkpt>
      <trkpt lat="47.23624" lon="-1.60914">
        <ele>72.6</ele>
        <time>2012-08-21T11:26:13.000Z</time>
      </trkpt>
      <trkpt lat="47.23624" lon="-1.60922">
        <ele>72.5</ele>
        <time>2012-08-21T11:26:14.000Z</time>
      </trkpt>
      <trkpt lat="47.23625" lon="-1.6093">
        <ele>72.8</ele>
        <time>2012-08-21T11:26:16.000Z</time>
      </trkpt>
      <trkpt lat="47.2362" lon="-1.60934">
        <ele>72.3</ele>
        <time>2012-08-21T11:26:18.000Z</time>
      </trkpt>
      <trkpt lat="47.23617" lon="-1.6094">
        <ele>72.5</ele>
        <time>2012-08-21T11:26:20.000Z</time>
      </trkpt>
      <trkpt lat="47.2361" lon="-1.60948">
        <ele>72.3</ele>
        <time>2012-08-21T11:26:22.000Z</time>
      </trkpt>
      <trkpt lat="47.23606" lon="-1.60955">
        <ele>72.4</ele>
        <time>2012-08-21T11:26:24.000Z</time>
      </trkpt>
      <trkpt lat="47.23605" lon="-1.60962">
        <ele>73.3</ele>
        <time>2012-08-21T11:26:26.000Z</time>
      </trkpt>
      <trkpt lat="47.23603" lon="-1.60972">
        <ele>72.6</ele>
        <time>2012-08-21T11:26:29.000Z</time>
      </trkpt>
      <trkpt lat="47.23603" lon="-1.60979">
        <ele>72.7</ele>
        <time>2012-08-21T11:26:30.000Z</time>
      </trkpt>
      <trkpt lat="47.23605" lon="-1.60986">
        <ele>73</ele>
        <time>2012-08-21T11:26:31.000Z</time>
      </trkpt>
      <trkpt lat="47.23607" lon="-1.60998">
        <ele>72.6</ele>
        <time>2012-08-21T11:26:32.000Z</time>
      </trkpt>
      <trkpt lat="47.23607" lon="-1.61005">
        <ele>70.7</ele>
        <time>2012-08-21T11:26:33.000Z</time>
      </trkpt>
      <trkpt lat="47.23609" lon="-1.61014">
        <ele>69.9</ele>
        <time>2012-08-21T11:26:35.000Z</time>
      </trkpt>
      <trkpt lat="47.23608" lon="-1.61021">
        <ele>68.7</ele>
        <time>2012-08-21T11:26:37.000Z</time>
      </trkpt>
      <trkpt lat="47.23607" lon="-1.61028">
        <ele>67.8</ele>
        <time>2012-08-21T11:26:38.000Z</time>
      </trkpt>
      <trkpt lat="47.23606" lon="-1.61035">
        <ele>67.6</ele>
        <time>2012-08-21T11:26:40.000Z</time>
      </trkpt>
      <trkpt lat="47.2361" lon="-1.61046">
        <ele>67.4</ele>
        <time>2012-08-21T11:26:42.000Z</time>
      </trkpt>
      <trkpt lat="47.2361" lon="-1.61054">
        <ele>66.5</ele>
        <time>2012-08-21T11:26:44.000Z</time>
      </trkpt>
      <trkpt lat="47.23609" lon="-1.61063">
        <ele>65.5</ele>
        <time>2012-08-21T11:26:47.000Z</time>
      </trkpt>
      <trkpt lat="47.23606" lon="-1.61073">
        <ele>64.9</ele>
        <time>2012-08-21T11:26:49.000Z</time>
      </trkpt>
      <trkpt lat="47.23609" lon="-1.61083">
        <ele>66.5</ele>
        <time>2012-08-21T11:26:51.000Z</time>
      </trkpt>
      <trkpt lat="47.23611" lon="-1.61093">
        <ele>66.5</ele>
        <time>2012-08-21T11:26:53.000Z</time>
      </trkpt>
      <trkpt lat="47.23613" lon="-1.61099">
        <ele>66.6</ele>
        <time>2012-08-21T11:26:55.000Z</time>
      </trkpt>
      <trkpt lat="47.23615" lon="-1.61105">
        <ele>66.6</ele>
        <time>2012-08-21T11:26:56.000Z</time>
      </trkpt>
      <trkpt lat="47.2362" lon="-1.61115">
        <ele>65.8</ele>
        <time>2012-08-21T11:26:58.000Z</time>
      </trkpt>
      <trkpt lat="47.23618" lon="-1.61123">
        <ele>65</ele>
        <time>2012-08-21T11:27:01.000Z</time>
      </trkpt>
      <trkpt lat="47.23619" lon="-1.6113">
        <ele>65</ele>
        <time>2012-08-21T11:27:04.000Z</time>
      </trkpt>
      <trkpt lat="47.23622" lon="-1.6114">
        <ele>65.9</ele>
        <time>2012-08-21T11:27:07.000Z</time>
      </trkpt>
      <trkpt lat="47.23624" lon="-1.61147">
        <ele>66.1</ele>
        <time>2012-08-21T11:27:09.000Z</time>
      </trkpt>
      <trkpt lat="47.23626" lon="-1.61158">
        <ele>65.7</ele>
        <time>2012-08-21T11:27:11.000Z</time>
      </trkpt>
      <trkpt lat="47.2363" lon="-1.61164">
        <ele>66</ele>
        <time>2012-08-21T11:27:12.000Z</time>
      </trkpt>
      <trkpt lat="47.23632" lon="-1.6117">
        <ele>65.8</ele>
        <time>2012-08-21T11:27:14.000Z</time>
      </trkpt>
      <trkpt lat="47.23635" lon="-1.61177">
        <ele>65.6</ele>
        <time>2012-08-21T11:27:16.000Z</time>
      </trkpt>
      <trkpt lat="47.23639" lon="-1.61183">
        <ele>65.5</ele>
        <time>2012-08-21T11:27:18.000Z</time>
      </trkpt>
      <trkpt lat="47.23645" lon="-1.61194">
        <ele>64.8</ele>
        <time>2012-08-21T11:27:22.000Z</time>
      </trkpt>
      <trkpt lat="47.23649" lon="-1.61203">
        <ele>65.1</ele>
        <time>2012-08-21T11:27:24.000Z</time>
      </trkpt>
      <trkpt lat="47.23653" lon="-1.61212">
        <ele>65.5</ele>
        <time>2012-08-21T11:27:27.000Z</time>
      </trkpt>
      <trkpt lat="47.23659" lon="-1.61219">
        <ele>65.2</ele>
        <time>2012-08-21T11:27:29.000Z</time>
      </trkpt>
      <trkpt lat="47.23663" lon="-1.61223">
        <ele>65.5</ele>
        <time>2012-08-21T11:27:30.000Z</time>
      </trkpt>
      <trkpt lat="47.23667" lon="-1.61227">
        <ele>65.7</ele>
        <time>2012-08-21T11:27:31.000Z</time>
      </trkpt>
      <trkpt lat="47.23673" lon="-1.61238">
        <ele>66.6</ele>
        <time>2012-08-21T11:27:33.000Z</time>
      </trkpt>
      <trkpt lat="47.23671" lon="-1.61244">
        <ele>66.9</ele>
        <time>2012-08-21T11:27:35.000Z</time>
      </trkpt>
      <trkpt lat="47.23672" lon="-1.61251">
        <ele>67</ele>
        <time>2012-08-21T11:27:37.000Z</time>
      </trkpt>
      <trkpt lat="47.23672" lon="-1.61263">
        <ele>66.4</ele>
        <time>2012-08-21T11:27:39.000Z</time>
      </trkpt>
      <trkpt lat="47.23671" lon="-1.61273">
        <ele>67</ele>
        <time>2012-08-21T11:27:42.000Z</time>
      </trkpt>
      <trkpt lat="47.23673" lon="-1.61283">
        <ele>66.9</ele>
        <time>2012-08-21T11:27:44.000Z</time>
      </trkpt>
      <trkpt lat="47.23674" lon="-1.61292">
        <ele>66.4</ele>
        <time>2012-08-21T11:27:48.000Z</time>
      </trkpt>
      <trkpt lat="47.23679" lon="-1.61298">
        <ele>66.6</ele>
        <time>2012-08-21T11:27:50.000Z</time>
      </trkpt>
      <trkpt lat="47.23683" lon="-1.61302">
        <ele>66.8</ele>
        <time>2012-08-21T11:27:53.000Z</time>
      </trkpt>
      <trkpt lat="47.23688" lon="-1.61305">
        <ele>66.7</ele>
        <time>2012-08-21T11:27:55.000Z</time>
      </trkpt>
      <trkpt lat="47.23695" lon="-1.61311">
        <ele>66.1</ele>
        <time>2012-08-21T11:27:57.000Z</time>
      </trkpt>
      <trkpt lat="47.23702" lon="-1.61316">
        <ele>66.4</ele>
        <time>2012-08-21T11:28:00.000Z</time>
      </trkpt>
      <trkpt lat="47.23706" lon="-1.6132">
        <ele>66.8</ele>
        <time>2012-08-21T11:28:02.000Z</time>
      </trkpt>
      <trkpt lat="47.23711" lon="-1.61324">
        <ele>66.7</ele>
        <time>2012-08-21T11:28:03.000Z</time>
      </trkpt>
      <trkpt lat="47.23716" lon="-1.61332">
        <ele>67.2</ele>
        <time>2012-08-21T11:28:05.000Z</time>
      </trkpt>
      <trkpt lat="47.23719" lon="-1.61338">
        <ele>66.9</ele>
        <time>2012-08-21T11:28:06.000Z</time>
      </trkpt>
      <trkpt lat="47.23722" lon="-1.61345">
        <ele>66.8</ele>
        <time>2012-08-21T11:28:07.000Z</time>
      </trkpt>
      <trkpt lat="47.23727" lon="-1.6135">
        <ele>67</ele>
        <time>2012-08-21T11:28:08.000Z</time>
      </trkpt>
      <trkpt lat="47.23729" lon="-1.61356">
        <ele>67.5</ele>
        <time>2012-08-21T11:28:10.000Z</time>
      </trkpt>
      <trkpt lat="47.23735" lon="-1.61364">
        <ele>67.7</ele>
        <time>2012-08-21T11:28:12.000Z</time>
      </trkpt>
      <trkpt lat="47.23737" lon="-1.61374">
        <ele>68</ele>
        <time>2012-08-21T11:28:15.000Z</time>
      </trkpt>
      <trkpt lat="47.23739" lon="-1.61382">
        <ele>67.8</ele>
        <time>2012-08-21T11:28:18.000Z</time>
      </trkpt>
      <trkpt lat="47.23741" lon="-1.61394">
        <ele>68.3</ele>
        <time>2012-08-21T11:28:21.000Z</time>
      </trkpt>
      <trkpt lat="47.23743" lon="-1.614">
        <ele>68.6</ele>
        <time>2012-08-21T11:28:24.000Z</time>
      </trkpt>
      <trkpt lat="47.23745" lon="-1.61412">
        <ele>68</ele>
        <time>2012-08-21T11:28:26.000Z</time>
      </trkpt>
      <trkpt lat="47.2374" lon="-1.61414">
        <ele>68.1</ele>
        <time>2012-08-21T11:28:27.000Z</time>
      </trkpt>
      <trkpt lat="47.23741" lon="-1.61422">
        <ele>68.3</ele>
        <time>2012-08-21T11:28:29.000Z</time>
      </trkpt>
      <trkpt lat="47.2374" lon="-1.61429">
        <ele>69.6</ele>
        <time>2012-08-21T11:28:31.000Z</time>
      </trkpt>
      <trkpt lat="47.23739" lon="-1.61436">
        <ele>68.4</ele>
        <time>2012-08-21T11:28:32.000Z</time>
      </trkpt>
      <trkpt lat="47.2374" lon="-1.61443">
        <ele>67.8</ele>
        <time>2012-08-21T11:28:33.000Z</time>
      </trkpt>
      <trkpt lat="47.23732" lon="-1.61445">
        <ele>67.7</ele>
        <time>2012-08-21T11:28:35.000Z</time>
      </trkpt>
      <trkpt lat="47.2373" lon="-1.61455">
        <ele>67.6</ele>
        <time>2012-08-21T11:28:38.000Z</time>
      </trkpt>
      <trkpt lat="47.23727" lon="-1.61463">
        <ele>68.7</ele>
        <time>2012-08-21T11:28:40.000Z</time>
      </trkpt>
      <trkpt lat="47.23728" lon="-1.61471">
        <ele>69</ele>
        <time>2012-08-21T11:28:41.000Z</time>
      </trkpt>
      <trkpt lat="47.23731" lon="-1.61482">
        <ele>69.3</ele>
        <time>2012-08-21T11:28:43.000Z</time>
      </trkpt>
      <trkpt lat="47.23733" lon="-1.6149">
        <ele>68.9</ele>
        <time>2012-08-21T11:28:45.000Z</time>
      </trkpt>
      <trkpt lat="47.23737" lon="-1.61499">
        <ele>68.4</ele>
        <time>2012-08-21T11:28:47.000Z</time>
      </trkpt>
      <trkpt lat="47.23734" lon="-1.61506">
        <ele>68.1</ele>
        <time>2012-08-21T11:28:50.000Z</time>
      </trkpt>
      <trkpt lat="47.23734" lon="-1.61513">
        <ele>68.4</ele>
        <time>2012-08-21T11:28:53.000Z</time>
      </trkpt>
      <trkpt lat="47.23736" lon="-1.61522">
        <ele>68.1</ele>
        <time>2012-08-21T11:28:57.000Z</time>
      </trkpt>
      <trkpt lat="47.23741" lon="-1.61523">
        <ele>68</ele>
        <time>2012-08-21T11:28:59.000Z</time>
      </trkpt>
      <trkpt lat="47.23748" lon="-1.61524">
        <ele>68.5</ele>
        <time>2012-08-21T11:29:01.000Z</time>
      </trkpt>
      <trkpt lat="47.23752" lon="-1.61525">
        <ele>68.8</ele>
        <time>2012-08-21T11:29:03.000Z</time>
      </trkpt>
      <trkpt lat="47.23757" lon="-1.61522">
        <ele>68.8</ele>
        <time>2012-08-21T11:29:06.000Z</time>
      </trkpt>
      <trkpt lat="47.23759" lon="-1.61511">
        <ele>68.5</ele>
        <time>2012-08-21T11:29:08.000Z</time>
      </trkpt>
      <trkpt lat="47.23767" lon="-1.61509">
        <ele>68.9</ele>
        <time>2012-08-21T11:29:10.000Z</time>
      </trkpt>
      <trkpt lat="47.23775" lon="-1.61509">
        <ele>68.5</ele>
        <time>2012-08-21T11:29:12.000Z</time>
      </trkpt>
      <trkpt lat="47.23782" lon="-1.61508">
        <ele>68.6</ele>
        <time>2012-08-21T11:29:15.000Z</time>
      </trkpt>
      <trkpt lat="47.23784" lon="-1.61501">
        <ele>67.4</ele>
        <time>2012-08-21T11:29:17.000Z</time>
      </trkpt>
      <trkpt lat="47.23787" lon="-1.61487">
        <ele>66.7</ele>
        <time>2012-08-21T11:29:20.000Z</time>
      </trkpt>
      <trkpt lat="47.23785" lon="-1.61478">
        <ele>65.6</ele>
        <time>2012-08-21T11:29:21.000Z</time>
      </trkpt>
      <trkpt lat="47.23784" lon="-1.61471">
        <ele>65.2</ele>
        <time>2012-08-21T11:29:22.000Z</time>
      </trkpt>
      <trkpt lat="47.23782" lon="-1.61462">
        <ele>64.3</ele>
        <time>2012-08-21T11:29:23.000Z</time>
      </trkpt>
      <trkpt lat="47.23784" lon="-1.61451">
        <ele>63.2</ele>
        <time>2012-08-21T11:29:25.000Z</time>
      </trkpt>
      <trkpt lat="47.23784" lon="-1.6144">
        <ele>63.8</ele>
        <time>2012-08-21T11:29:27.000Z</time>
      </trkpt>
      <trkpt lat="47.23782" lon="-1.61428">
        <ele>65.1</ele>
        <time>2012-08-21T11:29:29.000Z</time>
      </trkpt>
      <trkpt lat="47.23782" lon="-1.61418">
        <ele>64.8</ele>
        <time>2012-08-21T11:29:31.000Z</time>
      </trkpt>
      <trkpt lat="47.2378" lon="-1.6141">
        <ele>65.4</ele>
        <time>2012-08-21T11:29:33.000Z</time>
      </trkpt>
      <trkpt lat="47.23782" lon="-1.614">
        <ele>65.3</ele>
        <time>2012-08-21T11:29:35.000Z</time>
      </trkpt>
      <trkpt lat="47.23784" lon="-1.6139">
        <ele>65</ele>
        <time>2012-08-21T11:29:37.000Z</time>
      </trkpt>
      <trkpt lat="47.23783" lon="-1.61382">
        <ele>65.4</ele>
        <time>2012-08-21T11:29:39.000Z</time>
      </trkpt>
      <trkpt lat="47.23785" lon="-1.61375">
        <ele>65.4</ele>
        <time>2012-08-21T11:29:41.000Z</time>
      </trkpt>
      <trkpt lat="47.23784" lon="-1.61367">
        <ele>66.3</ele>
        <time>2012-08-21T11:29:43.000Z</time>
      </trkpt>
      <trkpt lat="47.23785" lon="-1.61361">
        <ele>66.3</ele>
        <time>2012-08-21T11:29:45.000Z</time>
      </trkpt>
      <trkpt lat="47.23786" lon="-1.61354">
        <ele>65.7</ele>
        <time>2012-08-21T11:29:47.000Z</time>
      </trkpt>
      <trkpt lat="47.2379" lon="-1.61349">
        <ele>65.4</ele>
        <time>2012-08-21T11:29:50.000Z</time>
      </trkpt>
      <trkpt lat="47.23794" lon="-1.61344">
        <ele>66</ele>
        <time>2012-08-21T11:29:52.000Z</time>
      </trkpt>
      <trkpt lat="47.23799" lon="-1.61338">
        <ele>66.1</ele>
        <time>2012-08-21T11:29:54.000Z</time>
      </trkpt>
      <trkpt lat="47.23804" lon="-1.61339">
        <ele>65</ele>
        <time>2012-08-21T11:29:56.000Z</time>
      </trkpt>
      <trkpt lat="47.2381" lon="-1.6134">
        <ele>64.4</ele>
        <time>2012-08-21T11:29:58.000Z</time>
      </trkpt>
      <trkpt lat="47.23816" lon="-1.61337">
        <ele>64.6</ele>
        <time>2012-08-21T11:30:00.000Z</time>
      </trkpt>
      <trkpt lat="47.23817" lon="-1.61328">
        <ele>65.3</ele>
        <time>2012-08-21T11:30:02.000Z</time>
      </trkpt>
      <trkpt lat="47.23823" lon="-1.61324">
        <ele>65.9</ele>
        <time>2012-08-21T11:30:04.000Z</time>
      </trkpt>
      <trkpt lat="47.2383" lon="-1.61319">
        <ele>66.8</ele>
        <time>2012-08-21T11:30:07.000Z</time>
      </trkpt>
      <trkpt lat="47.23836" lon="-1.61316">
        <ele>66.3</ele>
        <time>2012-08-21T11:30:09.000Z</time>
      </trkpt>
      <trkpt lat="47.23841" lon="-1.61316">
        <ele>66</ele>
        <time>2012-08-21T11:30:10.000Z</time>
      </trkpt>
      <trkpt lat="47.23847" lon="-1.61312">
        <ele>66.1</ele>
        <time>2012-08-21T11:30:12.000Z</time>
      </trkpt>
      <trkpt lat="47.23855" lon="-1.6131">
        <ele>65.7</ele>
        <time>2012-08-21T11:30:14.000Z</time>
      </trkpt>
      <trkpt lat="47.23858" lon="-1.61306">
        <ele>66.1</ele>
        <time>2012-08-21T11:30:16.000Z</time>
      </trkpt>
      <trkpt lat="47.23866" lon="-1.61302">
        <ele>67.2</ele>
        <time>2012-08-21T11:30:18.000Z</time>
      </trkpt>
      <trkpt lat="47.23869" lon="-1.61294">
        <ele>68.9</ele>
        <time>2012-08-21T11:30:21.000Z</time>
      </trkpt>
      <trkpt lat="47.23874" lon="-1.6129">
        <ele>69.9</ele>
        <time>2012-08-21T11:30:24.000Z</time>
      </trkpt>
      <trkpt lat="47.2388" lon="-1.61291">
        <ele>72.1</ele>
        <time>2012-08-21T11:30:26.000Z</time>
      </trkpt>
      <trkpt lat="47.23885" lon="-1.61291">
        <ele>72.9</ele>
        <time>2012-08-21T11:30:27.000Z</time>
      </trkpt>
      <trkpt lat="47.23893" lon="-1.61289">
        <ele>73.1</ele>
        <time>2012-08-21T11:30:30.000Z</time>
      </trkpt>
      <trkpt lat="47.23899" lon="-1.61288">
        <ele>73.5</ele>
        <time>2012-08-21T11:30:33.000Z</time>
      </trkpt>
      <trkpt lat="47.23903" lon="-1.61284">
        <ele>73.2</ele>
        <time>2012-08-21T11:30:35.000Z</time>
      </trkpt>
      <trkpt lat="47.23909" lon="-1.6128">
        <ele>74</ele>
        <time>2012-08-21T11:30:38.000Z</time>
      </trkpt>
      <trkpt lat="47.23914" lon="-1.6128">
        <ele>73.9</ele>
        <time>2012-08-21T11:30:40.000Z</time>
      </trkpt>
      <trkpt lat="47.23921" lon="-1.61282">
        <ele>74</ele>
        <time>2012-08-21T11:30:41.000Z</time>
      </trkpt>
      <trkpt lat="47.23924" lon="-1.61276">
        <ele>74</ele>
        <time>2012-08-21T11:30:43.000Z</time>
      </trkpt>
      <trkpt lat="47.23929" lon="-1.61276">
        <ele>74.8</ele>
        <time>2012-08-21T11:30:45.000Z</time>
      </trkpt>
      <trkpt lat="47.23935" lon="-1.61277">
        <ele>76.4</ele>
        <time>2012-08-21T11:30:48.000Z</time>
      </trkpt>
      <trkpt lat="47.23942" lon="-1.61277">
        <ele>77</ele>
        <time>2012-08-21T11:30:51.000Z</time>
      </trkpt>
      <trkpt lat="47.23948" lon="-1.61279">
        <ele>76.9</ele>
        <time>2012-08-21T11:30:53.000Z</time>
      </trkpt>
      <trkpt lat="47.23956" lon="-1.61283">
        <ele>76.3</ele>
        <time>2012-08-21T11:30:55.000Z</time>
      </trkpt>
      <trkpt lat="47.23957" lon="-1.61272">
        <ele>75.5</ele>
        <time>2012-08-21T11:30:57.000Z</time>
      </trkpt>
      <trkpt lat="47.23963" lon="-1.61267">
        <ele>76.5</ele>
        <time>2012-08-21T11:31:01.000Z</time>
      </trkpt>
      <trkpt lat="47.23965" lon="-1.6126">
        <ele>76</ele>
        <time>2012-08-21T11:31:02.000Z</time>
      </trkpt>
      <trkpt lat="47.2397" lon="-1.61261">
        <ele>75.7</ele>
        <time>2012-08-21T11:31:03.000Z</time>
      </trkpt>
      <trkpt lat="47.23973" lon="-1.61254">
        <ele>75</ele>
        <time>2012-08-21T11:31:06.000Z</time>
      </trkpt>
      <trkpt lat="47.23979" lon="-1.61251">
        <ele>74.3</ele>
        <time>2012-08-21T11:31:09.000Z</time>
      </trkpt>
      <trkpt lat="47.23985" lon="-1.61249">
        <ele>75.5</ele>
        <time>2012-08-21T11:31:12.000Z</time>
      </trkpt>
      <trkpt lat="47.23991" lon="-1.61251">
        <ele>77.3</ele>
        <time>2012-08-21T11:31:15.000Z</time>
      </trkpt>
      <trkpt lat="47.23997" lon="-1.61252">
        <ele>78.6</ele>
        <time>2012-08-21T11:31:19.000Z</time>
      </trkpt>
      <trkpt lat="47.24003" lon="-1.61255">
        <ele>79.5</ele>
        <time>2012-08-21T11:31:22.000Z</time>
      </trkpt>
      <trkpt lat="47.24007" lon="-1.61258">
        <ele>79.6</ele>
        <time>2012-08-21T11:31:23.000Z</time>
      </trkpt>
      <trkpt lat="47.24014" lon="-1.61261">
        <ele>80.1</ele>
        <time>2012-08-21T11:31:26.000Z</time>
      </trkpt>
      <trkpt lat="47.24018" lon="-1.61266">
        <ele>80.7</ele>
        <time>2012-08-21T11:31:27.000Z</time>
      </trkpt>
      <trkpt lat="47.24023" lon="-1.6127">
        <ele>80.7</ele>
        <time>2012-08-21T11:31:28.000Z</time>
      </trkpt>
      <trkpt lat="47.24028" lon="-1.61271">
        <ele>80.3</ele>
        <time>2012-08-21T11:31:30.000Z</time>
      </trkpt>
      <trkpt lat="47.24033" lon="-1.61274">
        <ele>80.5</ele>
        <time>2012-08-21T11:31:33.000Z</time>
      </trkpt>
      <trkpt lat="47.24039" lon="-1.61271">
        <ele>79.7</ele>
        <time>2012-08-21T11:31:36.000Z</time>
      </trkpt>
      <trkpt lat="47.24042" lon="-1.61262">
        <ele>79.2</ele>
        <time>2012-08-21T11:31:39.000Z</time>
      </trkpt>
      <trkpt lat="47.24046" lon="-1.61259">
        <ele>79.3</ele>
        <time>2012-08-21T11:31:41.000Z</time>
      </trkpt>
      <trkpt lat="47.24053" lon="-1.61259">
        <ele>80</ele>
        <time>2012-08-21T11:31:44.000Z</time>
      </trkpt>
      <trkpt lat="47.24059" lon="-1.61261">
        <ele>81.1</ele>
        <time>2012-08-21T11:31:45.000Z</time>
      </trkpt>
      <trkpt lat="47.24067" lon="-1.61259">
        <ele>82.9</ele>
        <time>2012-08-21T11:31:49.000Z</time>
      </trkpt>
      <trkpt lat="47.24075" lon="-1.61262">
        <ele>84</ele>
        <time>2012-08-21T11:31:52.000Z</time>
      </trkpt>
      <trkpt lat="47.24081" lon="-1.61258">
        <ele>84.9</ele>
        <time>2012-08-21T11:31:55.000Z</time>
      </trkpt>
      <trkpt lat="47.24087" lon="-1.61262">
        <ele>86.1</ele>
        <time>2012-08-21T11:31:59.000Z</time>
      </trkpt>
      <trkpt lat="47.24091" lon="-1.61264">
        <ele>87.1</ele>
        <time>2012-08-21T11:32:04.000Z</time>
      </trkpt>
      <trkpt lat="47.24096" lon="-1.61269">
        <ele>86.7</ele>
        <time>2012-08-21T11:32:06.000Z</time>
      </trkpt>
      <trkpt lat="47.24102" lon="-1.61268">
        <ele>87.2</ele>
        <time>2012-08-21T11:32:10.000Z</time>
      </trkpt>
      <trkpt lat="47.24108" lon="-1.61272">
        <ele>87.8</ele>
        <time>2012-08-21T11:32:12.000Z</time>
      </trkpt>
      <trkpt lat="47.24112" lon="-1.61274">
        <ele>88.5</ele>
        <time>2012-08-21T11:32:13.000Z</time>
      </trkpt>
      <trkpt lat="47.2412" lon="-1.61277">
        <ele>88</ele>
        <time>2012-08-21T11:32:15.000Z</time>
      </trkpt>
      <trkpt lat="47.24128" lon="-1.61277">
        <ele>88.6</ele>
        <time>2012-08-21T11:32:17.000Z</time>
      </trkpt>
      <trkpt lat="47.24132" lon="-1.61273">
        <ele>90</ele>
        <time>2012-08-21T11:32:20.000Z</time>
      </trkpt>
      <trkpt lat="47.24137" lon="-1.61276">
        <ele>89.9</ele>
        <time>2012-08-21T11:32:21.000Z</time>
      </trkpt>
      <trkpt lat="47.24143" lon="-1.61278">
        <ele>89.7</ele>
        <time>2012-08-21T11:32:22.000Z</time>
      </trkpt>
      <trkpt lat="47.24152" lon="-1.61283">
        <ele>89.7</ele>
        <time>2012-08-21T11:32:23.000Z</time>
      </trkpt>
      <trkpt lat="47.24157" lon="-1.61279">
        <ele>89.4</ele>
        <time>2012-08-21T11:32:26.000Z</time>
      </trkpt>
      <trkpt lat="47.24162" lon="-1.6128">
        <ele>89.5</ele>
        <time>2012-08-21T11:32:28.000Z</time>
      </trkpt>
      <trkpt lat="47.24159" lon="-1.6127">
        <ele>89.6</ele>
        <time>2012-08-21T11:32:30.000Z</time>
      </trkpt>
      <trkpt lat="47.24164" lon="-1.61268">
        <ele>90.4</ele>
        <time>2012-08-21T11:32:32.000Z</time>
      </trkpt>
      <trkpt lat="47.24168" lon="-1.61262">
        <ele>90</ele>
        <time>2012-08-21T11:32:35.000Z</time>
      </trkpt>
      <trkpt lat="47.24174" lon="-1.61264">
        <ele>88.7</ele>
        <time>2012-08-21T11:32:37.000Z</time>
      </trkpt>
      <trkpt lat="47.24177" lon="-1.61255">
        <ele>88.3</ele>
        <time>2012-08-21T11:32:39.000Z</time>
      </trkpt>
      <trkpt lat="47.24176" lon="-1.61244">
        <ele>86</ele>
        <time>2012-08-21T11:32:41.000Z</time>
      </trkpt>
      <trkpt lat="47.24181" lon="-1.61237">
        <ele>85.4</ele>
        <time>2012-08-21T11:32:44.000Z</time>
      </trkpt>
      <trkpt lat="47.24182" lon="-1.61229">
        <ele>84</ele>
        <time>2012-08-21T11:32:46.000Z</time>
      </trkpt>
      <trkpt lat="47.24189" lon="-1.61226">
        <ele>84.6</ele>
        <time>2012-08-21T11:32:49.000Z</time>
      </trkpt>
      <trkpt lat="47.24187" lon="-1.61214">
        <ele>84.2</ele>
        <time>2012-08-21T11:32:51.000Z</time>
      </trkpt>
      <trkpt lat="47.24191" lon="-1.6121">
        <ele>83.6</ele>
        <time>2012-08-21T11:32:54.000Z</time>
      </trkpt>
      <trkpt lat="47.24193" lon="-1.61203">
        <ele>83.6</ele>
        <time>2012-08-21T11:32:58.000Z</time>
      </trkpt>
      <trkpt lat="47.24196" lon="-1.61197">
        <ele>83.4</ele>
        <time>2012-08-21T11:33:01.000Z</time>
      </trkpt>
      <trkpt lat="47.24202" lon="-1.61198">
        <ele>83.9</ele>
        <time>2012-08-21T11:33:04.000Z</time>
      </trkpt>
      <trkpt lat="47.24208" lon="-1.61196">
        <ele>84.2</ele>
        <time>2012-08-21T11:33:06.000Z</time>
      </trkpt>
      <trkpt lat="47.24214" lon="-1.61194">
        <ele>83.5</ele>
        <time>2012-08-21T11:33:08.000Z</time>
      </trkpt>
      <trkpt lat="47.24217" lon="-1.61184">
        <ele>82.6</ele>
        <time>2012-08-21T11:33:10.000Z</time>
      </trkpt>
      <trkpt lat="47.2422" lon="-1.61178">
        <ele>82</ele>
        <time>2012-08-21T11:33:12.000Z</time>
      </trkpt>
      <trkpt lat="47.24219" lon="-1.61165">
        <ele>80.8</ele>
        <time>2012-08-21T11:33:13.000Z</time>
      </trkpt>
      <trkpt lat="47.24224" lon="-1.61157">
        <ele>81.3</ele>
        <time>2012-08-21T11:33:15.000Z</time>
      </trkpt>
      <trkpt lat="47.24225" lon="-1.61147">
        <ele>82.5</ele>
        <time>2012-08-21T11:33:17.000Z</time>
      </trkpt>
      <trkpt lat="47.24228" lon="-1.61142">
        <ele>82.3</ele>
        <time>2012-08-21T11:33:19.000Z</time>
      </trkpt>
      <trkpt lat="47.24233" lon="-1.61142">
        <ele>83.9</ele>
        <time>2012-08-21T11:33:21.000Z</time>
      </trkpt>
      <trkpt lat="47.24238" lon="-1.61138">
        <ele>84.2</ele>
        <time>2012-08-21T11:33:23.000Z</time>
      </trkpt>
      <trkpt lat="47.24241" lon="-1.61134">
        <ele>85.3</ele>
        <time>2012-08-21T11:33:25.000Z</time>
      </trkpt>
      <trkpt lat="47.24245" lon="-1.6113">
        <ele>86.1</ele>
        <time>2012-08-21T11:33:28.000Z</time>
      </trkpt>
      <trkpt lat="47.24252" lon="-1.61133">
        <ele>87.2</ele>
        <time>2012-08-21T11:33:30.000Z</time>
      </trkpt>
      <trkpt lat="47.24257" lon="-1.61131">
        <ele>87.5</ele>
        <time>2012-08-21T11:33:32.000Z</time>
      </trkpt>
      <trkpt lat="47.24263" lon="-1.61129">
        <ele>88.1</ele>
        <time>2012-08-21T11:33:35.000Z</time>
      </trkpt>
      <trkpt lat="47.24269" lon="-1.6113">
        <ele>87.8</ele>
        <time>2012-08-21T11:33:40.000Z</time>
      </trkpt>
      <trkpt lat="47.24268" lon="-1.61121">
        <ele>89.8</ele>
        <time>2012-08-21T11:33:44.000Z</time>
      </trkpt>
      <trkpt lat="47.24273" lon="-1.61118">
        <ele>90.7</ele>
        <time>2012-08-21T11:33:46.000Z</time>
      </trkpt>
      <trkpt lat="47.24278" lon="-1.61121">
        <ele>90.9</ele>
        <time>2012-08-21T11:33:47.000Z</time>
      </trkpt>
      <trkpt lat="47.24282" lon="-1.61116">
        <ele>91.6</ele>
        <time>2012-08-21T11:33:49.000Z</time>
      </trkpt>
      <trkpt lat="47.24285" lon="-1.61111">
        <ele>91.2</ele>
        <time>2012-08-21T11:33:50.000Z</time>
      </trkpt>
      <trkpt lat="47.24292" lon="-1.61111">
        <ele>92.2</ele>
        <time>2012-08-21T11:33:52.000Z</time>
      </trkpt>
      <trkpt lat="47.24298" lon="-1.61112">
        <ele>94</ele>
        <time>2012-08-21T11:33:54.000Z</time>
      </trkpt>
      <trkpt lat="47.24303" lon="-1.6111">
        <ele>94.6</ele>
        <time>2012-08-21T11:33:56.000Z</time>
      </trkpt>
      <trkpt lat="47.24309" lon="-1.61109">
        <ele>95.6</ele>
        <time>2012-08-21T11:33:58.000Z</time>
      </trkpt>
      <trkpt lat="47.24315" lon="-1.61108">
        <ele>96.4</ele>
        <time>2012-08-21T11:34:00.000Z</time>
      </trkpt>
      <trkpt lat="47.2432" lon="-1.61108">
        <ele>98.2</ele>
        <time>2012-08-21T11:34:02.000Z</time>
      </trkpt>
      <trkpt lat="47.24325" lon="-1.61107">
        <ele>98.5</ele>
        <time>2012-08-21T11:34:03.000Z</time>
      </trkpt>
      <trkpt lat="47.24332" lon="-1.61102">
        <ele>98.4</ele>
        <time>2012-08-21T11:34:05.000Z</time>
      </trkpt>
      <trkpt lat="47.24339" lon="-1.61101">
        <ele>98.7</ele>
        <time>2012-08-21T11:34:08.000Z</time>
      </trkpt>
      <trkpt lat="47.24342" lon="-1.61094">
        <ele>100.8</ele>
        <time>2012-08-21T11:34:13.000Z</time>
      </trkpt>
      <trkpt lat="47.24345" lon="-1.61084">
        <ele>99.6</ele>
        <time>2012-08-21T11:34:16.000Z</time>
      </trkpt>
      <trkpt lat="47.24349" lon="-1.61079">
        <ele>99</ele>
        <time>2012-08-21T11:34:18.000Z</time>
      </trkpt>
      <trkpt lat="47.24352" lon="-1.61072">
        <ele>98</ele>
        <time>2012-08-21T11:34:20.000Z</time>
      </trkpt>
      <trkpt lat="47.24358" lon="-1.61066">
        <ele>97.6</ele>
        <time>2012-08-21T11:34:22.000Z</time>
      </trkpt>
      <trkpt lat="47.24362" lon="-1.61058">
        <ele>97.3</ele>
        <time>2012-08-21T11:34:24.000Z</time>
      </trkpt>
      <trkpt lat="47.24366" lon="-1.61055">
        <ele>97.3</ele>
        <time>2012-08-21T11:34:25.000Z</time>
      </trkpt>
      <trkpt lat="47.24368" lon="-1.61047">
        <ele>99.5</ele>
        <time>2012-08-21T11:34:29.000Z</time>
      </trkpt>
      <trkpt lat="47.24372" lon="-1.61044">
        <ele>98.7</ele>
        <time>2012-08-21T11:34:31.000Z</time>
      </trkpt>
      <trkpt lat="47.24379" lon="-1.61042">
        <ele>97.7</ele>
        <time>2012-08-21T11:34:33.000Z</time>
      </trkpt>
      <trkpt lat="47.24382" lon="-1.61037">
        <ele>97.5</ele>
        <time>2012-08-21T11:34:35.000Z</time>
      </trkpt>
      <trkpt lat="47.24387" lon="-1.61033">
        <ele>97.6</ele>
        <time>2012-08-21T11:34:38.000Z</time>
      </trkpt>
      <trkpt lat="47.24395" lon="-1.61036">
        <ele>97.5</ele>
        <time>2012-08-21T11:34:40.000Z</time>
      </trkpt>
      <trkpt lat="47.244" lon="-1.61033">
        <ele>97.4</ele>
        <time>2012-08-21T11:34:44.000Z</time>
      </trkpt>
      <trkpt lat="47.24408" lon="-1.61034">
        <ele>98.5</ele>
        <time>2012-08-21T11:34:45.000Z</time>
      </trkpt>
      <trkpt lat="47.24411" lon="-1.61023">
        <ele>98.7</ele>
        <time>2012-08-21T11:34:48.000Z</time>
      </trkpt>
      <trkpt lat="47.24414" lon="-1.61016">
        <ele>98.6</ele>
        <time>2012-08-21T11:34:50.000Z</time>
      </trkpt>
      <trkpt lat="47.24419" lon="-1.61011">
        <ele>98.3</ele>
        <time>2012-08-21T11:34:52.000Z</time>
      </trkpt>
      <trkpt lat="47.24422" lon="-1.61005">
        <ele>99.6</ele>
        <time>2012-08-21T11:34:54.000Z</time>
      </trkpt>
      <trkpt lat="47.24428" lon="-1.61">
        <ele>99.5</ele>
        <time>2012-08-21T11:34:56.000Z</time>
      </trkpt>
      <trkpt lat="47.24428" lon="-1.6099">
        <ele>99.1</ele>
        <time>2012-08-21T11:34:58.000Z</time>
      </trkpt>
      <trkpt lat="47.24431" lon="-1.60986">
        <ele>98.4</ele>
        <time>2012-08-21T11:35:00.000Z</time>
      </trkpt>
      <trkpt lat="47.24436" lon="-1.60981">
        <ele>99</ele>
        <time>2012-08-21T11:35:02.000Z</time>
      </trkpt>
      <trkpt lat="47.24441" lon="-1.60978">
        <ele>99.8</ele>
        <time>2012-08-21T11:35:04.000Z</time>
      </trkpt>
      <trkpt lat="47.24444" lon="-1.6097">
        <ele>100.8</ele>
        <time>2012-08-21T11:35:06.000Z</time>
      </trkpt>
      <trkpt lat="47.24448" lon="-1.60966">
        <ele>101.4</ele>
        <time>2012-08-21T11:35:08.000Z</time>
      </trkpt>
      <trkpt lat="47.24447" lon="-1.60959">
        <ele>102.6</ele>
        <time>2012-08-21T11:35:09.000Z</time>
      </trkpt>
      <trkpt lat="47.24448" lon="-1.60949">
        <ele>103.7</ele>
        <time>2012-08-21T11:35:11.000Z</time>
      </trkpt>
      <trkpt lat="47.24448" lon="-1.60941">
        <ele>104.1</ele>
        <time>2012-08-21T11:35:13.000Z</time>
      </trkpt>
      <trkpt lat="47.24448" lon="-1.60934">
        <ele>104.6</ele>
        <time>2012-08-21T11:35:14.000Z</time>
      </trkpt>
      <trkpt lat="47.24446" lon="-1.60921">
        <ele>105.5</ele>
        <time>2012-08-21T11:35:15.000Z</time>
      </trkpt>
      <trkpt lat="47.24444" lon="-1.60914">
        <ele>105.8</ele>
        <time>2012-08-21T11:35:16.000Z</time>
      </trkpt>
      <trkpt lat="47.24443" lon="-1.60904">
        <ele>106.2</ele>
        <time>2012-08-21T11:35:18.000Z</time>
      </trkpt>
      <trkpt lat="47.2444" lon="-1.60889">
        <ele>106.6</ele>
        <time>2012-08-21T11:35:20.000Z</time>
      </trkpt>
      <trkpt lat="47.24439" lon="-1.60882">
        <ele>106.7</ele>
        <time>2012-08-21T11:35:21.000Z</time>
      </trkpt>
      <trkpt lat="47.24444" lon="-1.60886">
        <ele>106.5</ele>
        <time>2012-08-21T11:35:23.000Z</time>
      </trkpt>
      <trkpt lat="47.24442" lon="-1.60879">
        <ele>106.6</ele>
        <time>2012-08-21T11:35:24.000Z</time>
      </trkpt>
      <trkpt lat="47.24439" lon="-1.6087">
        <ele>106.6</ele>
        <time>2012-08-21T11:35:25.000Z</time>
      </trkpt>
      <trkpt lat="47.24444" lon="-1.60866">
        <ele>106.5</ele>
        <time>2012-08-21T11:35:28.000Z</time>
      </trkpt>
      <trkpt lat="47.24443" lon="-1.60858">
        <ele>106.6</ele>
        <time>2012-08-21T11:35:29.000Z</time>
      </trkpt>
      <trkpt lat="47.24443" lon="-1.60842">
        <ele>106.5</ele>
        <time>2012-08-21T11:35:31.000Z</time>
      </trkpt>
      <trkpt lat="47.24447" lon="-1.60842">
        <ele>106.7</ele>
        <time>2012-08-21T11:35:33.000Z</time>
      </trkpt>
      <trkpt lat="47.24453" lon="-1.60848">
        <ele>106.8</ele>
        <time>2012-08-21T11:35:34.000Z</time>
      </trkpt>
      <trkpt lat="47.24451" lon="-1.60838">
        <ele>106.7</ele>
        <time>2012-08-21T11:35:37.000Z</time>
      </trkpt>
      <trkpt lat="47.24448" lon="-1.60832">
        <ele>106.6</ele>
        <time>2012-08-21T11:35:38.000Z</time>
      </trkpt>
    </trkseg>
  </trk>
</gpx>